Observation data for Wall on 08/14/2019      Previous  Date  Next       Current Mesonet Observations  Soil Data  Daily Summary Page  Observations in Plain Language
KWA1 140500Z 25004KT 28/19 A2999 RMK A01 T02750193  RH  061%=      5-min Rain = 0
KWA1 140501Z 26003KT 28/19 A2999 RMK A01 T02750192  RH  061%=      5-min Rain = 0
KWA1 140502Z 26001KT 28/19 A2999 RMK A01 T02750191  RH  060%=      5-min Rain = 0
KWA1 140503Z 25001KT 28/19 A2998 RMK A01 T02750189  RH  059%=      5-min Rain = 0
KWA1 140504Z 25000KT 28/19 A2998 RMK A01 T02760188  RH  059%=      5-min Rain = 0
KWA1 140505Z 00000KT 28/19 A2998 RMK A01 T02770188  RH  058%=      5-min Rain = 0
KWA1 140506Z 00000KT 28/19 A2998 RMK A01 T02780186  RH  057%=      5-min Rain = 0
KWA1 140507Z 25000KT 28/19 A2998 RMK A01 T02780186  RH  057%=      5-min Rain = 0
KWA1 140508Z 25002KT 28/19 A2998 RMK A01 T02780191  RH  059%=      5-min Rain = 0
KWA1 140509Z 24004KT 28/19 A2999 RMK A01 T02760194  RH  061%=      5-min Rain = 0
KWA1 140510Z 22004KT 27/20 A2999 RMK A01 T02720197  RH  063%=      5-min Rain = 0
KWA1 140527Z 20002KT 27/19 A2998 RMK A01 T02710188  RH  060%=      5-min Rain = 0
KWA1 140528Z 19002KT 27/19 A2998 RMK A01 T02700186  RH  060%=      5-min Rain = 0
KWA1 140529Z 19002KT 27/18 A2998 RMK A01 T02690181  RH  059%=      5-min Rain = 0
KWA1 140530Z 19003KT 27/18 A2998 RMK A01 T02680180  RH  058%=      5-min Rain = 0
KWA1 140531Z 17004KT 27/19 A2998 RMK A01 T02680187  RH  061%=      5-min Rain = 0
KWA1 140532Z 17004KT 27/19 A2998 RMK A01 T02660189  RH  063%=      5-min Rain = 0
KWA1 140533Z 18004KT 27/19 A2998 RMK A01 T02650185  RH  062%=      5-min Rain = 0
KWA1 140534Z 18004KT 26/19 A2998 RMK A01 T02630185  RH  062%=      5-min Rain = 0
KWA1 140535Z 19003KT 26/18 A2998 RMK A01 T02630184  RH  062%=      5-min Rain = 0
KWA1 140536Z 18002KT 26/18 A2998 RMK A01 T02630183  RH  061%=      5-min Rain = 0
KWA1 140537Z 18002KT 26/18 A2998 RMK A01 T02640182  RH  061%=      5-min Rain = 0
KWA1 140538Z 16003KT 27/18 A2998 RMK A01 T02650183  RH  061%=      5-min Rain = 0
KWA1 140539Z 18003KT 27/18 A2998 RMK A01 T02650183  RH  061%=      5-min Rain = 0
KWA1 140540Z 18004KT 27/19 A2998 RMK A01 T02650187  RH  062%=      5-min Rain = 0
KWA1 140541Z 18003KT 27/19 A2998 RMK A01 T02650188  RH  063%=      5-min Rain = 0
KWA1 140542Z 17003KT 26/19 A2998 RMK A01 T02640187  RH  063%=      5-min Rain = 0
KWA1 140543Z 17003KT 26/19 A2998 RMK A01 T02630186  RH  063%=      5-min Rain = 0
KWA1 140544Z 16003KT 26/19 A2998 RMK A01 T02630185  RH  062%=      5-min Rain = 0
KWA1 140545Z 14003KT 26/18 A2998 RMK A01 T02630184  RH  062%=      5-min Rain = 0
KWA1 140546Z 14003KT 26/18 A2998 RMK A01 T02640182  RH  061%=      5-min Rain = 0
KWA1 140547Z 13002KT 27/18 A2998 RMK A01 T02650182  RH  060%=      5-min Rain = 0
KWA1 140548Z 12002KT 27/18 A2999 RMK A01 T02660180  RH  059%=      5-min Rain = 0
KWA1 140549Z 12002KT 27/18 A2999 RMK A01 T02660178  RH  059%=      5-min Rain = 0
KWA1 140550Z 13003KT 27/18 A2999 RMK A01 T02670179  RH  058%=      5-min Rain = 0
KWA1 140551Z 13002KT 27/18 A2999 RMK A01 T02670181  RH  059%=      5-min Rain = 0
KWA1 140552Z 13002KT 27/18 A2999 RMK A01 T02670180  RH  059%=      5-min Rain = 0
KWA1 140553Z 14002KT 27/18 A2999 RMK A01 T02680180  RH  059%=      5-min Rain = 0
KWA1 140554Z 14003KT 27/18 A2999 RMK A01 T02680181  RH  059%=      5-min Rain = 0
KWA1 140555Z 16002KT 27/19 A2999 RMK A01 T02670185  RH  061%=      5-min Rain = 0
KWA1 140556Z 20003KT 27/19 A2999 RMK A01 T02650186  RH  062%=      5-min Rain = 0
KWA1 140557Z 21004KT 26/19 A2999 RMK A01 T02620191  RH  065%=      5-min Rain = 0
KWA1 140558Z 22004KT 26/19 A2999 RMK A01 T02600192  RH  066%=      5-min Rain = 0
KWA1 140559Z 21004KT 26/19 A2999 RMK A01 T02580190  RH  066%=      5-min Rain = 0
KWA1 140600Z 22004KT 26/19 A2999 RMK A01 T02580191  RH  066%=      5-min Rain = 0
KWA1 140601Z 22004KT 26/19 A2999 RMK A01 T02580192  RH  067%=      5-min Rain = 0
KWA1 140602Z 22004KT 26/19 A2999 RMK A01 T02570193  RH  067%=      5-min Rain = 0
KWA1 140603Z 22004KT 26/19 A2999 RMK A01 T02570193  RH  068%=      5-min Rain = 0
KWA1 140604Z 23004KT 26/19 A2999 RMK A01 T02550192  RH  068%=      5-min Rain = 0
KWA1 140605Z 24004KT 26/19 A2999 RMK A01 T02550189  RH  067%=      5-min Rain = 0
KWA1 140606Z 23004KT 26/19 A2999 RMK A01 T02550188  RH  066%=      5-min Rain = 0
KWA1 140607Z 23004KT 26/19 A2999 RMK A01 T02560188  RH  066%=      5-min Rain = 0
KWA1 140608Z 23003KT 26/19 A2999 RMK A01 T02570189  RH  066%=      5-min Rain = 0
KWA1 140609Z 23004KT 26/19 A30 RMK A01 T02570188  RH  066%=      5-min Rain = 0
KWA1 140610Z 23005KT 26/19 A30 RMK A01 T02580188  RH  065%=      5-min Rain = 0
KWA1 140611Z 23005KT 26/19 A30 RMK A01 T02580189  RH  066%=      5-min Rain = 0
KWA1 140612Z 23004KT 26/19 A30 RMK A01 T02570188  RH  065%=      5-min Rain = 0
KWA1 140613Z 24005KT 26/19 A30 RMK A01 T02580188  RH  065%=      5-min Rain = 0
KWA1 140614Z 23006KT 26/19 A30 RMK A01 T02580187  RH  065%=      5-min Rain = 0
KWA1 140615Z 23006KT 26/19 A30 RMK A01 T02580188  RH  065%=      5-min Rain = 0
KWA1 140616Z 23006KT 26/19 A30 RMK A01 T02590187  RH  065%=      5-min Rain = 0
KWA1 140617Z 24005KT 26/19 A30 RMK A01 T02590186  RH  064%=      5-min Rain = 0
KWA1 140618Z 23005KT 26/19 A30 RMK A01 T02600187  RH  064%=      5-min Rain = 0
KWA1 140619Z 22005KT 26/19 A30 RMK A01 T02600188  RH  064%=      5-min Rain = 0
KWA1 140620Z 23005KT 26/19 A30 RMK A01 T02600189  RH  065%=      5-min Rain = 0
KWA1 140621Z 24005KT 26/19 A30 RMK A01 T02590188  RH  065%=      5-min Rain = 0
KWA1 140622Z 23005KT 26/19 A30 RMK A01 T02590187  RH  065%=      5-min Rain = 0
KWA1 140623Z 23005KT 26/19 A30 RMK A01 T02590187  RH  065%=      5-min Rain = 0
KWA1 140624Z 24005KT 26/19 A30 RMK A01 T02590188  RH  064%=      5-min Rain = 0
KWA1 140625Z 24006KT 26/19 A30 RMK A01 T02600188  RH  065%=      5-min Rain = 0
KWA1 140626Z 24007KT 26/19 A30 RMK A01 T02600190  RH  065%=      5-min Rain = 0
KWA1 140627Z 24006KT 26/19 A30 RMK A01 T02590189  RH  065%=      5-min Rain = 0
KWA1 140628Z 24006KT 26/19 A30 RMK A01 T02600189  RH  065%=      5-min Rain = 0
KWA1 140629Z 24006KT 26/19 A30 RMK A01 T02610190  RH  065%=      5-min Rain = 0
KWA1 140630Z 24006KT 26/19 A30 RMK A01 T02600189  RH  065%=      5-min Rain = 0
KWA1 140631Z 24006KT 26/19 A30 RMK A01 T02600188  RH  065%=      5-min Rain = 0
KWA1 140632Z 23007KT 26/19 A30 RMK A01 T02600188  RH  065%=      5-min Rain = 0
KWA1 140633Z 23006KT 26/19 A30 RMK A01 T02600188  RH  065%=      5-min Rain = 0
KWA1 140634Z 23005KT 26/19 A30 RMK A01 T02590188  RH  065%=      5-min Rain = 0
KWA1 140635Z 22006KT 26/19 A30 RMK A01 T02600187  RH  064%=      5-min Rain = 0
KWA1 140636Z 22007KT 26/19 A30 RMK A01 T02600189  RH  065%=      5-min Rain = 0
KWA1 140637Z 24006KT 26/19 A30 RMK A01 T02600189  RH  065%=      5-min Rain = 0
KWA1 140638Z 23006KT 26/19 A30 RMK A01 T02600188  RH  064%=      5-min Rain = 0
KWA1 140639Z 22006KT 26/19 A30 RMK A01 T02610189  RH  064%=      5-min Rain = 0
KWA1 140640Z 22007KT 26/19 A30 RMK A01 T02620190  RH  065%=      5-min Rain = 0
KWA1 140641Z 22006KT 26/19 A30 RMK A01 T02610191  RH  065%=      5-min Rain = 0
KWA1 140642Z 23007KT 26/19 A30 RMK A01 T02610190  RH  065%=      5-min Rain = 0
KWA1 140643Z 22007KT 26/19 A30 RMK A01 T02620191  RH  065%=      5-min Rain = 0
KWA1 140644Z 23007KT 26/19 A30 RMK A01 T02630189  RH  064%=      5-min Rain = 0
KWA1 140645Z 24007KT 27/19 A30 RMK A01 T02650189  RH  063%=      5-min Rain = 0
KWA1 140646Z 24007KT 27/19 A30 RMK A01 T02660189  RH  063%=      5-min Rain = 0
KWA1 140647Z 24007KT 27/19 A30 RMK A01 T02680190  RH  062%=      5-min Rain = 0
KWA1 140648Z 24006KT 27/19 A30 RMK A01 T02700190  RH  061%=      5-min Rain = 0
KWA1 140649Z 23007KT 27/19 A30 RMK A01 T02700189  RH  061%=      5-min Rain = 0
KWA1 140650Z 24006KT 27/19 A30 RMK A01 T02690189  RH  061%=      5-min Rain = 0
KWA1 140651Z 24006KT 27/19 A30 RMK A01 T02680188  RH  061%=      5-min Rain = 0
KWA1 140652Z 24006KT 27/19 A30 RMK A01 T02680188  RH  061%=      5-min Rain = 0
KWA1 140653Z 24005KT 27/19 A30 RMK A01 T02690188  RH  061%=      5-min Rain = 0
KWA1 140654Z 25005KT 27/19 A30 RMK A01 T02680188  RH  061%=      5-min Rain = 0
KWA1 140655Z 25005KT 27/19 A30 RMK A01 T02670188  RH  062%=      5-min Rain = 0
KWA1 140656Z 25005KT 27/19 A30 RMK A01 T02660188  RH  062%=      5-min Rain = 0
KWA1 140657Z 25005KT 26/19 A30 RMK A01 T02640188  RH  063%=      5-min Rain = 0
KWA1 140658Z 25005KT 26/19 A30 RMK A01 T02640189  RH  063%=      5-min Rain = 0
KWA1 140659Z 24004KT 26/19 A30 RMK A01 T02620189  RH  064%=      5-min Rain = 0
KWA1 140700Z 24005KT 26/19 A30 RMK A01 T02620188  RH  064%=      5-min Rain = 0
KWA1 140701Z 24005KT 26/19 A30 RMK A01 T02620188  RH  064%=      5-min Rain = 0
KWA1 140702Z 24004KT 26/19 A30 RMK A01 T02610188  RH  064%=      5-min Rain = 0
KWA1 140703Z 25004KT 26/19 A30 RMK A01 T02610189  RH  064%=      5-min Rain = 0
KWA1 140704Z 24004KT 26/19 A30 RMK A01 T02610189  RH  064%=      5-min Rain = 0
KWA1 140705Z 24004KT 26/19 A30 RMK A01 T02600189  RH  065%=      5-min Rain = 0
KWA1 140706Z 24004KT 26/19 A30 RMK A01 T02600189  RH  065%=      5-min Rain = 0
KWA1 140707Z 25004KT 26/19 A30 RMK A01 T02610189  RH  065%=      5-min Rain = 0
KWA1 140708Z 25003KT 26/19 A30 RMK A01 T02610189  RH  064%=      5-min Rain = 0
KWA1 140709Z 24003KT 26/19 A30 RMK A01 T02620189  RH  064%=      5-min Rain = 0
KWA1 140710Z 23004KT 26/19 A30 RMK A01 T02620189  RH  064%=      5-min Rain = 0
KWA1 140711Z 24004KT 26/19 A30 RMK A01 T02610190  RH  065%=      5-min Rain = 0
KWA1 140712Z 25004KT 26/19 A30 RMK A01 T02620190  RH  065%=      5-min Rain = 0
KWA1 140713Z 26003KT 26/19 A30 RMK A01 T02620189  RH  064%=      5-min Rain = 0
KWA1 140714Z 24003KT 26/19 A30 RMK A01 T02620190  RH  064%=      5-min Rain = 0
KWA1 140715Z 24003KT 26/19 A30 RMK A01 T02610194  RH  067%=      5-min Rain = 0
KWA1 140716Z 24003KT 26/20 A30 RMK A01 T02600195  RH  067%=      5-min Rain = 0
KWA1 140717Z 24003KT 26/19 A30 RMK A01 T02590194  RH  068%=      5-min Rain = 0
KWA1 140718Z 24003KT 26/19 A30 RMK A01 T02580194  RH  068%=      5-min Rain = 0
KWA1 140719Z 24003KT 26/19 A30 RMK A01 T02570194  RH  068%=      5-min Rain = 0
KWA1 140720Z 24003KT 26/19 A30 RMK A01 T02570194  RH  068%=      5-min Rain = 0
KWA1 140721Z 24004KT 26/19 A30 RMK A01 T02560194  RH  068%=      5-min Rain = 0
KWA1 140722Z 24004KT 26/19 A30 RMK A01 T02550194  RH  069%=      5-min Rain = 0
KWA1 140723Z 23004KT 25/19 A3001 RMK A01 T02540194  RH  069%=      5-min Rain = 0
KWA1 140724Z 24004KT 25/19 A30 RMK A01 T02540194  RH  069%=      5-min Rain = 0
KWA1 140725Z 25004KT 25/19 A30 RMK A01 T02540192  RH  069%=      5-min Rain = 0
KWA1 140726Z 24005KT 25/19 A30 RMK A01 T02540193  RH  069%=      5-min Rain = 0
KWA1 140727Z 24005KT 25/19 A30 RMK A01 T02540194  RH  069%=      5-min Rain = 0
KWA1 140728Z 23004KT 25/19 A30 RMK A01 T02530194  RH  070%=      5-min Rain = 0
KWA1 140729Z 22005KT 25/20 A30 RMK A01 T02520196  RH  071%=      5-min Rain = 0
KWA1 140730Z 23005KT 25/20 A30 RMK A01 T02520195  RH  071%=      5-min Rain = 0
KWA1 140731Z 24005KT 25/20 A30 RMK A01 T02530195  RH  070%=      5-min Rain = 0
KWA1 140732Z 24005KT 25/19 A30 RMK A01 T02540194  RH  069%=      5-min Rain = 0
KWA1 140733Z 23005KT 25/20 A30 RMK A01 T02540195  RH  070%=      5-min Rain = 0
KWA1 140734Z 23005KT 25/20 A30 RMK A01 T02540195  RH  070%=      5-min Rain = 0
KWA1 140735Z 23004KT 25/19 A30 RMK A01 T02540194  RH  070%=      5-min Rain = 0
KWA1 140736Z 22005KT 25/19 A30 RMK A01 T02540194  RH  070%=      5-min Rain = 0
KWA1 140737Z 21005KT 25/19 A30 RMK A01 T02530194  RH  070%=      5-min Rain = 0
KWA1 140738Z 21006KT 25/19 A30 RMK A01 T02520193  RH  070%=      5-min Rain = 0
KWA1 140739Z 21006KT 25/19 A30 RMK A01 T02520193  RH  070%=      5-min Rain = 0
KWA1 140740Z 23005KT 25/19 A30 RMK A01 T02520193  RH  070%=      5-min Rain = 0
KWA1 140741Z 24005KT 25/19 A30 RMK A01 T02510192  RH  070%=      5-min Rain = 0
KWA1 140742Z 23006KT 25/19 A30 RMK A01 T02510192  RH  070%=      5-min Rain = 0
KWA1 140743Z 22005KT 25/19 A30 RMK A01 T02500194  RH  071%=      5-min Rain = 0
KWA1 140744Z 21006KT 25/19 A30 RMK A01 T02490194  RH  071%=      5-min Rain = 0
KWA1 140745Z 22006KT 25/19 A30 RMK A01 T02480192  RH  071%=      5-min Rain = 0
KWA1 140746Z 22007KT 25/19 A30 RMK A01 T02480192  RH  071%=      5-min Rain = 0
KWA1 140747Z 21006KT 25/19 A30 RMK A01 T02480191  RH  070%=      5-min Rain = 0
KWA1 140748Z 22005KT 25/19 A30 RMK A01 T02490191  RH  070%=      5-min Rain = 0
KWA1 140749Z 23007KT 25/19 A30 RMK A01 T02490190  RH  070%=      5-min Rain = 0
KWA1 140750Z 23008KT 25/19 A30 RMK A01 T02500190  RH  069%=      5-min Rain = 0
KWA1 140751Z 25007KT 25/19 A30 RMK A01 T02510189  RH  068%=      5-min Rain = 0
KWA1 140752Z 25006KT 25/19 A30 RMK A01 T02530189  RH  068%=      5-min Rain = 0
KWA1 140753Z 23006KT 25/19 A30 RMK A01 T02540191  RH  068%=      5-min Rain = 0
KWA1 140754Z 19008KT 25/19 A30 RMK A01 T02540191  RH  068%=      5-min Rain = 0
KWA1 140755Z 19008KT 25/19 A30 RMK A01 T02530188  RH  067%=      5-min Rain = 0
KWA1 140756Z 22007KT 26/19 A30 RMK A01 T02560188  RH  066%=      5-min Rain = 0
KWA1 140757Z 23007KT 26/19 A30 RMK A01 T02580189  RH  066%=      5-min Rain = 0
KWA1 140758Z 22006KT 26/19 A30 RMK A01 T02600190  RH  065%=      5-min Rain = 0
KWA1 140759Z 20007KT 26/19 A30 RMK A01 T02600190  RH  065%=      5-min Rain = 0
KWA1 140800Z 19007KT 26/19 A30 RMK A01 T02590189  RH  065%=      5-min Rain = 0
KWA1 140801Z 20005KT 26/19 A30 RMK A01 T02600188  RH  065%=      5-min Rain = 0
KWA1 140802Z 22005KT 26/19 A30 RMK A01 T02600188  RH  065%=      5-min Rain = 0
KWA1 140803Z 22007KT 26/19 A30 RMK A01 T02600188  RH  065%=      5-min Rain = 0
KWA1 140804Z 22007KT 26/19 A30 RMK A01 T02590188  RH  065%=      5-min Rain = 0
KWA1 140805Z 22006KT 26/19 A30 RMK A01 T02580188  RH  065%=      5-min Rain = 0
KWA1 140806Z 22006KT 26/19 A30 RMK A01 T02590189  RH  065%=      5-min Rain = 0
KWA1 140807Z 22006KT 26/19 A30 RMK A01 T02580189  RH  065%=      5-min Rain = 0
KWA1 140808Z 22006KT 26/19 A30 RMK A01 T02580189  RH  066%=      5-min Rain = 0
KWA1 140809Z 21006KT 26/19 A30 RMK A01 T02560189  RH  066%=      5-min Rain = 0
KWA1 140810Z 20006KT 26/19 A30 RMK A01 T02560189  RH  066%=      5-min Rain = 0
KWA1 140811Z 20006KT 26/19 A30 RMK A01 T02560188  RH  066%=      5-min Rain = 0
KWA1 140812Z 20005KT 26/19 A30 RMK A01 T02560188  RH  066%=      5-min Rain = 0
KWA1 140813Z 20005KT 26/19 A30 RMK A01 T02560188  RH  066%=      5-min Rain = 0
KWA1 140814Z 21005KT 26/19 A30 RMK A01 T02560188  RH  066%=      5-min Rain = 0
KWA1 140815Z 21006KT 26/19 A30 RMK A01 T02560188  RH  066%=      5-min Rain = 0
KWA1 140816Z 21006KT 26/19 A30 RMK A01 T02560188  RH  066%=      5-min Rain = 0
KWA1 140817Z 21006KT 26/19 A30 RMK A01 T02560188  RH  066%=      5-min Rain = 0
KWA1 140818Z 21006KT 26/19 A30 RMK A01 T02550188  RH  066%=      5-min Rain = 0
KWA1 140819Z 22007KT 25/19 A30 RMK A01 T02540188  RH  067%=      5-min Rain = 0
KWA1 140820Z 22006KT 25/19 A30 RMK A01 T02540188  RH  067%=      5-min Rain = 0
KWA1 140821Z 23006KT 25/19 A30 RMK A01 T02540188  RH  067%=      5-min Rain = 0
KWA1 140822Z 23006KT 25/19 A30 RMK A01 T02540187  RH  066%=      5-min Rain = 0
KWA1 140823Z 20004KT 25/19 A3001 RMK A01 T02540188  RH  067%=      5-min Rain = 0
KWA1 140824Z 21005KT 25/19 A3001 RMK A01 T02540188  RH  067%=      5-min Rain = 0
KWA1 140825Z 21004KT 25/19 A3001 RMK A01 T02540188  RH  067%=      5-min Rain = 0
KWA1 140826Z 22004KT 25/19 A3001 RMK A01 T02530189  RH  067%=      5-min Rain = 0
KWA1 140827Z 23003KT 25/19 A3001 RMK A01 T02530189  RH  068%=      5-min Rain = 0
KWA1 140828Z 23003KT 25/19 A3001 RMK A01 T02520189  RH  068%=      5-min Rain = 0
KWA1 140829Z 21003KT 25/19 A3001 RMK A01 T02510189  RH  068%=      5-min Rain = 0
KWA1 140830Z 21003KT 25/19 A3001 RMK A01 T02510188  RH  068%=      5-min Rain = 0
KWA1 140831Z 22004KT 25/19 A3001 RMK A01 T02500187  RH  068%=      5-min Rain = 0
KWA1 140832Z 22004KT 25/19 A3001 RMK A01 T02510187  RH  067%=      5-min Rain = 0
KWA1 140833Z 23005KT 25/19 A3001 RMK A01 T02520187  RH  067%=      5-min Rain = 0
KWA1 140834Z 23005KT 25/19 A3001 RMK A01 T02520187  RH  067%=      5-min Rain = 0
KWA1 140835Z 23004KT 25/19 A3001 RMK A01 T02520187  RH  067%=      5-min Rain = 0
KWA1 140836Z 23004KT 25/19 A3001 RMK A01 T02520188  RH  068%=      5-min Rain = 0
KWA1 140837Z 22004KT 25/19 A3001 RMK A01 T02520189  RH  068%=      5-min Rain = 0
KWA1 140838Z 21004KT 25/19 A3001 RMK A01 T02510189  RH  069%=      5-min Rain = 0
KWA1 140839Z 22004KT 25/19 A3001 RMK A01 T02510189  RH  069%=      5-min Rain = 0
KWA1 140840Z 22004KT 25/19 A3001 RMK A01 T02500190  RH  069%=      5-min Rain = 0
KWA1 140841Z 22004KT 25/19 A3001 RMK A01 T02500190  RH  069%=      5-min Rain = 0
KWA1 140842Z 22004KT 25/19 A3001 RMK A01 T02500189  RH  069%=      5-min Rain = 0
KWA1 140843Z 22004KT 25/19 A3001 RMK A01 T02490189  RH  069%=      5-min Rain = 0
KWA1 140844Z 22004KT 25/19 A3001 RMK A01 T02490188  RH  069%=      5-min Rain = 0
KWA1 140845Z 21005KT 25/19 A3001 RMK A01 T02500188  RH  069%=      5-min Rain = 0
KWA1 140846Z 20005KT 25/19 A3001 RMK A01 T02490189  RH  069%=      5-min Rain = 0
KWA1 140847Z 20005KT 25/19 A3001 RMK A01 T02500190  RH  069%=      5-min Rain = 0
KWA1 140848Z 20005KT 25/19 A3001 RMK A01 T02500189  RH  069%=      5-min Rain = 0
KWA1 140849Z 20005KT 25/19 A3001 RMK A01 T02500190  RH  069%=      5-min Rain = 0
KWA1 140850Z 20005KT 25/19 A3001 RMK A01 T02500189  RH  069%=      5-min Rain = 0
KWA1 140851Z 20005KT 25/19 A3001 RMK A01 T02500188  RH  069%=      5-min Rain = 0
KWA1 140852Z 20005KT 25/19 A30 RMK A01 T02500189  RH  069%=      5-min Rain = 0
KWA1 140853Z 20005KT 25/19 A30 RMK A01 T02510189  RH  069%=      5-min Rain = 0
KWA1 140854Z 20005KT 25/19 A30 RMK A01 T02520191  RH  069%=      5-min Rain = 0
KWA1 140855Z 20005KT 25/19 A30 RMK A01 T02510194  RH  070%=      5-min Rain = 0
KWA1 140856Z 21005KT 25/19 A30 RMK A01 T02490193  RH  071%=      5-min Rain = 0
KWA1 140857Z 20005KT 25/19 A30 RMK A01 T02470193  RH  072%=      5-min Rain = 0
KWA1 140858Z 20005KT 25/19 A30 RMK A01 T02460193  RH  072%=      5-min Rain = 0
KWA1 140859Z 21005KT 25/19 A30 RMK A01 T02460194  RH  073%=      5-min Rain = 0
KWA1 140900Z 21005KT 25/19 A30 RMK A01 T02450194  RH  073%=      5-min Rain = 0
KWA1 140901Z 20005KT 24/19 A30 RMK A01 T02440190  RH  072%=      5-min Rain = 0
KWA1 140902Z 20005KT 25/19 A30 RMK A01 T02450192  RH  073%=      5-min Rain = 0
KWA1 140903Z 20005KT 25/19 A30 RMK A01 T02450191  RH  072%=      5-min Rain = 0
KWA1 140904Z 20006KT 25/19 A30 RMK A01 T02450190  RH  071%=      5-min Rain = 0
KWA1 140905Z 19006KT 25/19 A30 RMK A01 T02450188  RH  071%=      5-min Rain = 0
KWA1 140906Z 19006KT 25/19 A30 RMK A01 T02450187  RH  070%=      5-min Rain = 0
KWA1 140907Z 19006KT 25/19 A30 RMK A01 T02460186  RH  069%=      5-min Rain = 0
KWA1 140908Z 19005KT 25/19 A30 RMK A01 T02470185  RH  068%=      5-min Rain = 0
KWA1 140909Z 19005KT 25/19 A30 RMK A01 T02480185  RH  068%=      5-min Rain = 0
KWA1 140910Z 20006KT 25/18 A30 RMK A01 T02480184  RH  067%=      5-min Rain = 0
KWA1 140911Z 19006KT 25/18 A30 RMK A01 T02490184  RH  067%=      5-min Rain = 0
KWA1 140912Z 18006KT 25/19 A30 RMK A01 T02500185  RH  067%=      5-min Rain = 0
KWA1 140913Z 20007KT 25/19 A30 RMK A01 T02500185  RH  067%=      5-min Rain = 0
KWA1 140914Z 19007KT 25/18 A30 RMK A01 T02500184  RH  067%=      5-min Rain = 0
KWA1 140915Z 19006KT 25/18 A30 RMK A01 T02500184  RH  067%=      5-min Rain = 0
KWA1 140916Z 19005KT 25/18 A30 RMK A01 T02500184  RH  067%=      5-min Rain = 0
KWA1 140917Z 19005KT 25/18 A30 RMK A01 T02510184  RH  067%=      5-min Rain = 0
KWA1 140918Z 19006KT 25/19 A30 RMK A01 T02510185  RH  067%=      5-min Rain = 0
KWA1 140919Z 21006KT 25/19 A30 RMK A01 T02510185  RH  067%=      5-min Rain = 0
KWA1 140920Z 20006KT 25/18 A30 RMK A01 T02510184  RH  066%=      5-min Rain = 0
KWA1 140921Z 20006KT 25/19 A30 RMK A01 T02520185  RH  066%=      5-min Rain = 0
KWA1 140922Z 18005KT 25/19 A30 RMK A01 T02520186  RH  067%=      5-min Rain = 0
KWA1 140923Z 19006KT 25/19 A30 RMK A01 T02520185  RH  067%=      5-min Rain = 0
KWA1 140924Z 20007KT 25/18 A30 RMK A01 T02520184  RH  066%=      5-min Rain = 0
KWA1 140925Z 20006KT 25/18 A30 RMK A01 T02520184  RH  066%=      5-min Rain = 0
KWA1 140926Z 19005KT 25/18 A30 RMK A01 T02540184  RH  065%=      5-min Rain = 0
KWA1 140927Z 18004KT 25/19 A30 RMK A01 T02540185  RH  066%=      5-min Rain = 0
KWA1 140928Z 18005KT 25/18 A30 RMK A01 T02540184  RH  065%=      5-min Rain = 0
KWA1 140929Z 18006KT 25/18 A30 RMK A01 T02540184  RH  065%=      5-min Rain = 0
KWA1 140930Z 19005KT 25/18 A30 RMK A01 T02530183  RH  065%=      5-min Rain = 0
KWA1 140931Z 19006KT 25/18 A30 RMK A01 T02530183  RH  065%=      5-min Rain = 0
KWA1 140932Z 19005KT 25/18 A30 RMK A01 T02530182  RH  065%=      5-min Rain = 0
KWA1 140933Z 18005KT 25/18 A30 RMK A01 T02530182  RH  065%=      5-min Rain = 0
KWA1 140934Z 18006KT 25/18 A30 RMK A01 T02530183  RH  065%=      5-min Rain = 0
KWA1 140935Z 18006KT 25/18 A30 RMK A01 T02530184  RH  065%=      5-min Rain = 0
KWA1 140936Z 17006KT 25/18 A30 RMK A01 T02530184  RH  066%=      5-min Rain = 0
KWA1 140937Z 17006KT 25/18 A30 RMK A01 T02530184  RH  066%=      5-min Rain = 0
KWA1 140938Z 18006KT 25/19 A30 RMK A01 T02520185  RH  066%=      5-min Rain = 0
KWA1 140939Z 17006KT 25/19 A30 RMK A01 T02520185  RH  066%=      5-min Rain = 0
KWA1 140940Z 17006KT 25/19 A30 RMK A01 T02530185  RH  066%=      5-min Rain = 0
KWA1 140941Z 17006KT 25/19 A30 RMK A01 T02520185  RH  066%=      5-min Rain = 0
KWA1 140942Z 17006KT 25/19 A30 RMK A01 T02520185  RH  066%=      5-min Rain = 0
KWA1 140943Z 17006KT 25/19 A30 RMK A01 T02520185  RH  066%=      5-min Rain = 0
KWA1 140944Z 17006KT 25/18 A30 RMK A01 T02510184  RH  066%=      5-min Rain = 0
KWA1 140945Z 18006KT 25/18 A30 RMK A01 T02520184  RH  066%=      5-min Rain = 0
KWA1 140946Z 18006KT 25/18 A30 RMK A01 T02520184  RH  066%=      5-min Rain = 0
KWA1 140947Z 17006KT 25/18 A30 RMK A01 T02520184  RH  066%=      5-min Rain = 0
KWA1 140948Z 18006KT 25/18 A30 RMK A01 T02520184  RH  066%=      5-min Rain = 0
KWA1 140949Z 18006KT 25/18 A30 RMK A01 T02520183  RH  066%=      5-min Rain = 0
KWA1 140950Z 18006KT 25/18 A30 RMK A01 T02530183  RH  065%=      5-min Rain = 0
KWA1 140951Z 18006KT 25/18 A30 RMK A01 T02530183  RH  065%=      5-min Rain = 0
KWA1 140952Z 18006KT 25/18 A30 RMK A01 T02530183  RH  065%=      5-min Rain = 0
KWA1 140953Z 18006KT 25/18 A30 RMK A01 T02530183  RH  065%=      5-min Rain = 0
KWA1 140954Z 18006KT 25/18 A30 RMK A01 T02540183  RH  065%=      5-min Rain = 0
KWA1 140955Z 18006KT 25/18 A30 RMK A01 T02540183  RH  065%=      5-min Rain = 0
KWA1 140956Z 18006KT 25/18 A30 RMK A01 T02530183  RH  065%=      5-min Rain = 0
KWA1 140957Z 18006KT 25/18 A30 RMK A01 T02530183  RH  065%=      5-min Rain = 0
KWA1 140958Z 18006KT 25/18 A30 RMK A01 T02530182  RH  065%=      5-min Rain = 0
KWA1 140959Z 18006KT 25/18 A30 RMK A01 T02520182  RH  065%=      5-min Rain = 0
KWA1 141000Z 18006KT 25/18 A30 RMK A01 T02530182  RH  065%=      5-min Rain = 0
KWA1 141001Z 18006KT 25/18 A30 RMK A01 T02530182  RH  065%=      5-min Rain = 0
KWA1 141002Z 18005KT 25/18 A30 RMK A01 T02530182  RH  065%=      5-min Rain = 0
KWA1 141003Z 18005KT 25/18 A30 RMK A01 T02530182  RH  065%=      5-min Rain = 0
KWA1 141004Z 19005KT 25/18 A30 RMK A01 T02520182  RH  065%=      5-min Rain = 0
KWA1 141005Z 19006KT 25/18 A30 RMK A01 T02510182  RH  065%=      5-min Rain = 0
KWA1 141006Z 19006KT 25/18 A30 RMK A01 T02500182  RH  066%=      5-min Rain = 0
KWA1 141007Z 19006KT 25/18 A30 RMK A01 T02500182  RH  066%=      5-min Rain = 0
KWA1 141008Z 19006KT 25/18 A30 RMK A01 T02500182  RH  066%=      5-min Rain = 0
KWA1 141009Z 19006KT 25/18 A30 RMK A01 T02500181  RH  066%=      5-min Rain = 0
KWA1 141010Z 18006KT 25/18 A30 RMK A01 T02500181  RH  065%=      5-min Rain = 0
KWA1 141011Z 18006KT 25/18 A30 RMK A01 T02510181  RH  065%=      5-min Rain = 0
KWA1 141012Z 19007KT 25/18 A30 RMK A01 T02510181  RH  065%=      5-min Rain = 0
KWA1 141013Z 19007KT 25/18 A30 RMK A01 T02510181  RH  065%=      5-min Rain = 0
KWA1 141014Z 19007KT 25/18 A30 RMK A01 T02510181  RH  065%=      5-min Rain = 0
KWA1 141015Z 18007KT 25/18 A30 RMK A01 T02520181  RH  065%=      5-min Rain = 0
KWA1 141016Z 18007KT 25/18 A30 RMK A01 T02520181  RH  065%=      5-min Rain = 0
KWA1 141017Z 18007KT 25/18 A30 RMK A01 T02520181  RH  065%=      5-min Rain = 0
KWA1 141018Z 18007KT 25/18 A30 RMK A01 T02520181  RH  065%=      5-min Rain = 0
KWA1 141019Z 18007KT 25/18 A30 RMK A01 T02520181  RH  065%=      5-min Rain = 0
KWA1 141020Z 18007KT 25/18 A2999 RMK A01 T02520182  RH  065%=      5-min Rain = 0
KWA1 141021Z 18007KT 25/18 A2999 RMK A01 T02510182  RH  065%=      5-min Rain = 0
KWA1 141022Z 18007KT 25/18 A30 RMK A01 T02510182  RH  065%=      5-min Rain = 0
KWA1 141023Z 17007KT 25/18 A30 RMK A01 T02510182  RH  066%=      5-min Rain = 0
KWA1 141024Z 17007KT 25/18 A30 RMK A01 T02510183  RH  066%=      5-min Rain = 0
KWA1 141025Z 18007KT 25/18 A30 RMK A01 T02510183  RH  066%=      5-min Rain = 0
KWA1 141026Z 18006KT 25/18 A30 RMK A01 T02510182  RH  066%=      5-min Rain = 0
KWA1 141027Z 18006KT 25/18 A30 RMK A01 T02520182  RH  065%=      5-min Rain = 0
KWA1 141028Z 18006KT 25/18 A30 RMK A01 T02520182  RH  065%=      5-min Rain = 0
KWA1 141029Z 19006KT 25/18 A30 RMK A01 T02530182  RH  065%=      5-min Rain = 0
KWA1 141030Z 19007KT 25/18 A30 RMK A01 T02530183  RH  065%=      5-min Rain = 0
KWA1 141031Z 19006KT 25/18 A30 RMK A01 T02540183  RH  065%=      5-min Rain = 0
KWA1 141032Z 19006KT 26/18 A30 RMK A01 T02560184  RH  064%=      5-min Rain = 0
KWA1 141033Z 19006KT 26/18 A30 RMK A01 T02570184  RH  064%=      5-min Rain = 0
KWA1 141034Z 19006KT 26/19 A30 RMK A01 T02570185  RH  064%=      5-min Rain = 0
KWA1 141035Z 19006KT 26/19 A30 RMK A01 T02580186  RH  064%=      5-min Rain = 0
KWA1 141036Z 19006KT 26/19 A30 RMK A01 T02580186  RH  064%=      5-min Rain = 0
KWA1 141037Z 19006KT 26/19 A30 RMK A01 T02590186  RH  064%=      5-min Rain = 0
KWA1 141038Z 19006KT 26/19 A30 RMK A01 T02590186  RH  064%=      5-min Rain = 0
KWA1 141039Z 19006KT 26/19 A30 RMK A01 T02590186  RH  064%=      5-min Rain = 0
KWA1 141040Z 18006KT 26/19 A30 RMK A01 T02600186  RH  064%=      5-min Rain = 0
KWA1 141041Z 19006KT 26/19 A30 RMK A01 T02600187  RH  064%=      5-min Rain = 0
KWA1 141042Z 18006KT 26/19 A30 RMK A01 T02600187  RH  064%=      5-min Rain = 0
KWA1 141043Z 18005KT 26/19 A30 RMK A01 T02610188  RH  064%=      5-min Rain = 0
KWA1 141044Z 18006KT 26/19 A30 RMK A01 T02610188  RH  064%=      5-min Rain = 0
KWA1 141045Z 18005KT 26/19 A30 RMK A01 T02610188  RH  064%=      5-min Rain = 0
KWA1 141046Z 18005KT 26/19 A30 RMK A01 T02620189  RH  064%=      5-min Rain = 0
KWA1 141047Z 18006KT 26/19 A30 RMK A01 T02610189  RH  064%=      5-min Rain = 0
KWA1 141048Z 18006KT 26/19 A30 RMK A01 T02620190  RH  065%=      5-min Rain = 0
KWA1 141049Z 18006KT 26/19 A30 RMK A01 T02610190  RH  065%=      5-min Rain = 0
KWA1 141050Z 18006KT 26/19 A30 RMK A01 T02620191  RH  065%=      5-min Rain = 0
KWA1 141051Z 18006KT 26/19 A3001 RMK A01 T02620191  RH  065%=      5-min Rain = 0
KWA1 141052Z 18006KT 26/19 A3001 RMK A01 T02620191  RH  065%=      5-min Rain = 0
KWA1 141053Z 18005KT 26/19 A3001 RMK A01 T02620192  RH  065%=      5-min Rain = 0
KWA1 141054Z 18005KT 26/19 A30 RMK A01 T02620192  RH  065%=      5-min Rain = 0
KWA1 141055Z 18005KT 26/19 A30 RMK A01 T02620193  RH  066%=      5-min Rain = 0
KWA1 141056Z 19005KT 26/19 A30 RMK A01 T02610193  RH  066%=      5-min Rain = 0
KWA1 141057Z 18005KT 26/19 A3001 RMK A01 T02610193  RH  066%=      5-min Rain = 0
KWA1 141058Z 18006KT 26/19 A3001 RMK A01 T02620194  RH  066%=      5-min Rain = 0
KWA1 141059Z 19005KT 26/19 A3001 RMK A01 T02610194  RH  066%=      5-min Rain = 0
KWA1 141100Z 19006KT 26/19 A3001 RMK A01 T02620194  RH  067%=      5-min Rain = 0
KWA1 141101Z 19006KT 26/20 A3001 RMK A01 T02620196  RH  067%=      5-min Rain = 0
KWA1 141102Z 19007KT 26/20 A3001 RMK A01 T02620196  RH  067%=      5-min Rain = 0
KWA1 141103Z 19006KT 26/20 A30 RMK A01 T02630197  RH  067%=      5-min Rain = 0
KWA1 141104Z 18007KT 26/20 A30 RMK A01 T02640197  RH  067%=      5-min Rain = 0
KWA1 141105Z 18007KT 27/20 A30 RMK A01 T02650197  RH  066%=      5-min Rain = 0
KWA1 141106Z 18007KT 27/20 A30 RMK A01 T02650197  RH  066%=      5-min Rain = 0
KWA1 141107Z 18007KT 27/20 A30 RMK A01 T02650197  RH  066%=      5-min Rain = 0
KWA1 141108Z 17007KT 27/20 A30 RMK A01 T02650198  RH  066%=      5-min Rain = 0
KWA1 141109Z 17007KT 27/20 A30 RMK A01 T02650198  RH  067%=      5-min Rain = 0
KWA1 141110Z 17007KT 26/20 A30 RMK A01 T02640198  RH  067%=      5-min Rain = 0
KWA1 141111Z 17008KT 26/20 A30 RMK A01 T02640197  RH  067%=      5-min Rain = 0
KWA1 141112Z 17008KT 26/20 A30 RMK A01 T02630197  RH  067%=      5-min Rain = 0
KWA1 141113Z 17008KT 26/20 A30 RMK A01 T02630197  RH  067%=      5-min Rain = 0
KWA1 141114Z 17007KT 26/20 A30 RMK A01 T02630197  RH  067%=      5-min Rain = 0
KWA1 141115Z 17007KT 26/20 A3001 RMK A01 T02620197  RH  067%=      5-min Rain = 0
KWA1 141116Z 17007KT 26/20 A3001 RMK A01 T02620197  RH  067%=      5-min Rain = 0
KWA1 141117Z 17007KT 26/20 A3001 RMK A01 T02620197  RH  067%=      5-min Rain = 0
KWA1 141118Z 17006KT 26/20 A3001 RMK A01 T02630197  RH  067%=      5-min Rain = 0
KWA1 141119Z 18006KT 26/20 A3001 RMK A01 T02630197  RH  067%=      5-min Rain = 0
KWA1 141120Z 17005KT 26/20 A3001 RMK A01 T02630197  RH  067%=      5-min Rain = 0
KWA1 141121Z 17006KT 26/20 A3001 RMK A01 T02630197  RH  067%=      5-min Rain = 0
KWA1 141122Z 18006KT 26/20 A3001 RMK A01 T02630197  RH  067%=      5-min Rain = 0
KWA1 141123Z 17006KT 26/20 A3001 RMK A01 T02630197  RH  067%=      5-min Rain = 0
KWA1 141124Z 17005KT 26/20 A3001 RMK A01 T02630197  RH  067%=      5-min Rain = 0
KWA1 141125Z 17006KT 26/20 A3001 RMK A01 T02630197  RH  067%=      5-min Rain = 0
KWA1 141126Z 18005KT 26/20 A3001 RMK A01 T02630197  RH  067%=      5-min Rain = 0
KWA1 141127Z 18005KT 26/20 A3001 RMK A01 T02630197  RH  067%=      5-min Rain = 0
KWA1 141128Z 18005KT 26/20 A3001 RMK A01 T02630197  RH  067%=      5-min Rain = 0
KWA1 141129Z 18005KT 26/20 A3001 RMK A01 T02630197  RH  067%=      5-min Rain = 0
KWA1 141130Z 18005KT 26/20 A3001 RMK A01 T02630198  RH  067%=      5-min Rain = 0
KWA1 141131Z 18005KT 26/20 A3001 RMK A01 T02630198  RH  067%=      5-min Rain = 0
KWA1 141132Z 18005KT 26/20 A3001 RMK A01 T02630198  RH  067%=      5-min Rain = 0
KWA1 141133Z 18005KT 26/20 A3001 RMK A01 T02620198  RH  068%=      5-min Rain = 0
KWA1 141134Z 18005KT 26/20 A3001 RMK A01 T02630198  RH  068%=      5-min Rain = 0
KWA1 141135Z 18006KT 26/20 A3001 RMK A01 T02620198  RH  068%=      5-min Rain = 0
KWA1 141136Z 18006KT 26/20 A3001 RMK A01 T02630198  RH  068%=      5-min Rain = 0
KWA1 141137Z 18006KT 26/20 A3001 RMK A01 T02630198  RH  067%=      5-min Rain = 0
KWA1 141138Z 18005KT 26/20 A3001 RMK A01 T02630198  RH  067%=      5-min Rain = 0
KWA1 141139Z 18005KT 26/20 A3001 RMK A01 T02630198  RH  067%=      5-min Rain = 0
KWA1 141140Z 19005KT 26/20 A3001 RMK A01 T02630198  RH  067%=      5-min Rain = 0
KWA1 141141Z 19005KT 26/20 A3002 RMK A01 T02630199  RH  068%=      5-min Rain = 0
KWA1 141142Z 19005KT 26/20 A3002 RMK A01 T02620199  RH  068%=      5-min Rain = 0
KWA1 141143Z 19005KT 26/20 A3002 RMK A01 T02610199  RH  069%=      5-min Rain = 0
KWA1 141144Z 18005KT 26/20 A3002 RMK A01 T02600199  RH  069%=      5-min Rain = 0
KWA1 141145Z 18005KT 26/20 A3001 RMK A01 T02600199  RH  069%=      5-min Rain = 0
KWA1 141146Z 18006KT 26/20 A3001 RMK A01 T02600198  RH  069%=      5-min Rain = 0
KWA1 141147Z 18006KT 26/20 A3001 RMK A01 T02600199  RH  069%=      5-min Rain = 0
KWA1 141148Z 18006KT 26/20 A3001 RMK A01 T02610199  RH  069%=      5-min Rain = 0
KWA1 141149Z 18006KT 26/20 A3002 RMK A01 T02610199  RH  069%=      5-min Rain = 0
KWA1 141150Z 18006KT 26/20 A3002 RMK A01 T02610199  RH  068%=      5-min Rain = 0
KWA1 141151Z 18006KT 26/20 A3002 RMK A01 T02620199  RH  068%=      5-min Rain = 0
KWA1 141152Z 18006KT 26/20 A3002 RMK A01 T02630199  RH  068%=      5-min Rain = 0
KWA1 141153Z 18007KT 26/20 A3002 RMK A01 T02630199  RH  068%=      5-min Rain = 0
KWA1 141154Z 18006KT 26/20 A3002 RMK A01 T02630199  RH  068%=      5-min Rain = 0
KWA1 141155Z 19006KT 26/20 A3002 RMK A01 T02630199  RH  068%=      5-min Rain = 0
KWA1 141156Z 19006KT 26/20 A3002 RMK A01 T02630200  RH  068%=      5-min Rain = 0
KWA1 141157Z 19006KT 26/20 A3002 RMK A01 T02630200  RH  068%=      5-min Rain = 0
KWA1 141158Z 19006KT 26/20 A3002 RMK A01 T02620200  RH  069%=      5-min Rain = 0
KWA1 141159Z 19005KT 26/20 A3002 RMK A01 T02620200  RH  069%=      5-min Rain = 0
KWA1 141200Z 19005KT 26/20 A3002 RMK A01 T02620200  RH  069%=      5-min Rain = 0
KWA1 141201Z 20004KT 26/20 A3002 RMK A01 T02610200  RH  069%=      5-min Rain = 0
KWA1 141202Z 20004KT 26/20 A3002 RMK A01 T02610200  RH  069%=      5-min Rain = 0
KWA1 141203Z 20003KT 26/20 A3002 RMK A01 T02610201  RH  070%=      5-min Rain = 0
KWA1 141204Z 20003KT 26/20 A3002 RMK A01 T02600201  RH  070%=      5-min Rain = 0
KWA1 141205Z 20003KT 26/20 A3002 RMK A01 T02600201  RH  070%=      5-min Rain = 0
KWA1 141206Z 20002KT 26/20 A3002 RMK A01 T02590201  RH  070%=      5-min Rain = 0
KWA1 141207Z 20002KT 26/20 A3003 RMK A01 T02590201  RH  070%=      5-min Rain = 0
KWA1 141208Z 19002KT 26/20 A3003 RMK A01 T02590200  RH  070%=      5-min Rain = 0
KWA1 141209Z 18002KT 26/20 A3003 RMK A01 T02590200  RH  070%=      5-min Rain = 0
KWA1 141210Z 19002KT 26/20 A3003 RMK A01 T02580200  RH  070%=      5-min Rain = 0
KWA1 141211Z 18002KT 26/20 A3003 RMK A01 T02580200  RH  070%=      5-min Rain = 0
KWA1 141212Z 18001KT 26/20 A3003 RMK A01 T02580200  RH  070%=      5-min Rain = 0
KWA1 141213Z 18002KT 26/20 A3003 RMK A01 T02580199  RH  070%=      5-min Rain = 0
KWA1 141214Z 18001KT 26/20 A3003 RMK A01 T02580199  RH  070%=      5-min Rain = 0
KWA1 141215Z 19001KT 26/20 A3003 RMK A01 T02580199  RH  070%=      5-min Rain = 0
KWA1 141216Z 19000KT 26/20 A3003 RMK A01 T02580198  RH  070%=      5-min Rain = 0
KWA1 141217Z 00000KT 26/20 A3003 RMK A01 T02580197  RH  069%=      5-min Rain = 0
KWA1 141218Z 25000KT 26/20 A3003 RMK A01 T02580195  RH  068%=      5-min Rain = 0
KWA1 141219Z 25001KT 26/20 A3003 RMK A01 T02570195  RH  068%=      5-min Rain = 0
KWA1 141220Z 29002KT 26/19 A3003 RMK A01 T02560194  RH  068%=      5-min Rain = 0
KWA1 141221Z 30002KT 26/19 A3003 RMK A01 T02550194  RH  069%=      5-min Rain = 0
KWA1 141222Z 30003KT 25/19 A3003 RMK A01 T02540194  RH  069%=      5-min Rain = 0
KWA1 141223Z 31003KT 25/19 A3003 RMK A01 T02520194  RH  070%=      5-min Rain = 0
KWA1 141224Z 31004KT 25/19 A3004 RMK A01 T02510194  RH  070%=      5-min Rain = 0
KWA1 141225Z 31005KT 25/19 A3004 RMK A01 T02510194  RH  071%=      5-min Rain = 0
KWA1 141226Z 31005KT 25/19 A3004 RMK A01 T02510194  RH  071%=      5-min Rain = 0
KWA1 141227Z 30006KT 25/19 A3004 RMK A01 T02500193  RH  071%=      5-min Rain = 0
KWA1 141228Z 31006KT 25/19 A3004 RMK A01 T02500193  RH  071%=      5-min Rain = 0
KWA1 141229Z 31006KT 25/19 A3004 RMK A01 T02500193  RH  070%=      5-min Rain = 0
KWA1 141230Z 31005KT 25/19 A3004 RMK A01 T02500192  RH  070%=      5-min Rain = 0
KWA1 141231Z 31005KT 25/19 A3004 RMK A01 T02500191  RH  070%=      5-min Rain = 0
KWA1 141232Z 30004KT 25/19 A3004 RMK A01 T02500190  RH  069%=      5-min Rain = 0
KWA1 141233Z 31004KT 25/19 A3004 RMK A01 T02500190  RH  069%=      5-min Rain = 0
KWA1 141234Z 30004KT 25/19 A3004 RMK A01 T02500190  RH  069%=      5-min Rain = 0
KWA1 141235Z 30003KT 25/19 A3004 RMK A01 T02500190  RH  069%=      5-min Rain = 0
KWA1 141236Z 31003KT 25/19 A3004 RMK A01 T02500190  RH  069%=      5-min Rain = 0
KWA1 141237Z 31003KT 25/19 A3004 RMK A01 T02500190  RH  069%=      5-min Rain = 0
KWA1 141238Z 31004KT 25/19 A3004 RMK A01 T02500190  RH  069%=      5-min Rain = 0
KWA1 141239Z 31003KT 25/19 A3004 RMK A01 T02500189  RH  069%=      5-min Rain = 0
KWA1 141240Z 31003KT 25/19 A3004 RMK A01 T02500189  RH  069%=      5-min Rain = 0
KWA1 141241Z 30003KT 25/19 A3004 RMK A01 T02500189  RH  069%=      5-min Rain = 0
KWA1 141242Z 30003KT 25/19 A3004 RMK A01 T02500189  RH  069%=      5-min Rain = 0
KWA1 141243Z 29003KT 25/19 A3003 RMK A01 T02510190  RH  069%=      5-min Rain = 0
KWA1 141244Z 29003KT 25/19 A3003 RMK A01 T02510190  RH  069%=      5-min Rain = 0
KWA1 141245Z 29003KT 25/19 A3003 RMK A01 T02510191  RH  069%=      5-min Rain = 0
KWA1 141246Z 29003KT 25/19 A3003 RMK A01 T02510190  RH  069%=      5-min Rain = 0
KWA1 141247Z 29003KT 25/19 A3003 RMK A01 T02510191  RH  069%=      5-min Rain = 0
KWA1 141248Z 29003KT 25/19 A3003 RMK A01 T02500190  RH  069%=      5-min Rain = 0
KWA1 141249Z 29003KT 25/19 A3003 RMK A01 T02510191  RH  070%=      5-min Rain = 0
KWA1 141250Z 29003KT 25/19 A3003 RMK A01 T02500191  RH  070%=      5-min Rain = 0
KWA1 141251Z 28003KT 25/19 A3003 RMK A01 T02500192  RH  070%=      5-min Rain = 0
KWA1 141252Z 29003KT 25/19 A3003 RMK A01 T02500192  RH  070%=      5-min Rain = 0
KWA1 141253Z 29002KT 25/19 A3004 RMK A01 T02500191  RH  070%=      5-min Rain = 0
KWA1 141254Z 29002KT 25/19 A3004 RMK A01 T02500192  RH  070%=      5-min Rain = 0
KWA1 141255Z 30003KT 25/19 A3004 RMK A01 T02510192  RH  070%=      5-min Rain = 0
KWA1 141256Z 31002KT 25/19 A3004 RMK A01 T02500192  RH  070%=      5-min Rain = 0
KWA1 141257Z 32003KT 25/19 A3004 RMK A01 T02510192  RH  070%=      5-min Rain = 0
KWA1 141258Z 32003KT 25/19 A3004 RMK A01 T02520192  RH  070%=      5-min Rain = 0
KWA1 141259Z 31004KT 25/19 A3004 RMK A01 T02510192  RH  070%=      5-min Rain = 0
KWA1 141300Z 31004KT 25/19 A3004 RMK A01 T02510193  RH  070%=      5-min Rain = 0
KWA1 141301Z 32004KT 25/19 A3004 RMK A01 T02510193  RH  070%=      5-min Rain = 0
KWA1 141302Z 32004KT 25/19 A3004 RMK A01 T02520194  RH  070%=      5-min Rain = 0
KWA1 141303Z 32004KT 25/20 A3004 RMK A01 T02530195  RH  070%=      5-min Rain = 0
KWA1 141304Z 31003KT 25/20 A3004 RMK A01 T02530195  RH  070%=      5-min Rain = 0
KWA1 141305Z 31004KT 25/20 A3004 RMK A01 T02530195  RH  070%=      5-min Rain = 0
KWA1 141306Z 31004KT 25/20 A3004 RMK A01 T02540195  RH  070%=      5-min Rain = 0
KWA1 141307Z 31004KT 25/20 A3004 RMK A01 T02540195  RH  070%=      5-min Rain = 0
KWA1 141308Z 31004KT 26/20 A3004 RMK A01 T02550196  RH  070%=      5-min Rain = 0
KWA1 141309Z 31004KT 26/20 A3004 RMK A01 T02560196  RH  069%=      5-min Rain = 0
KWA1 141310Z 31005KT 26/20 A3004 RMK A01 T02570196  RH  069%=      5-min Rain = 0
KWA1 141311Z 31004KT 26/20 A3004 RMK A01 T02570196  RH  069%=      5-min Rain = 0
KWA1 141312Z 31003KT 26/20 A3005 RMK A01 T02580197  RH  069%=      5-min Rain = 0
KWA1 141313Z 31004KT 26/20 A3005 RMK A01 T02590197  RH  069%=      5-min Rain = 0
KWA1 141314Z 30003KT 26/20 A3005 RMK A01 T02600198  RH  069%=      5-min Rain = 0
KWA1 141315Z 29003KT 26/20 A3005 RMK A01 T02610198  RH  068%=      5-min Rain = 0
KWA1 141316Z 29003KT 26/20 A3005 RMK A01 T02610198  RH  068%=      5-min Rain = 0
KWA1 141317Z 29003KT 26/20 A3005 RMK A01 T02620198  RH  068%=      5-min Rain = 0
KWA1 141318Z 28003KT 26/20 A3005 RMK A01 T02620199  RH  068%=      5-min Rain = 0
KWA1 141319Z 28003KT 26/20 A3005 RMK A01 T02630199  RH  068%=      5-min Rain = 0
KWA1 141320Z 29003KT 26/20 A3005 RMK A01 T02630199  RH  068%=      5-min Rain = 0
KWA1 141321Z 29003KT 26/20 A3005 RMK A01 T02630199  RH  068%=      5-min Rain = 0
KWA1 141322Z 29004KT 26/20 A3005 RMK A01 T02640199  RH  068%=      5-min Rain = 0
KWA1 141323Z 28004KT 26/20 A3005 RMK A01 T02640199  RH  067%=      5-min Rain = 0
KWA1 141324Z 28003KT 27/20 A3005 RMK A01 T02650200  RH  067%=      5-min Rain = 0
KWA1 141325Z 27003KT 27/20 A3005 RMK A01 T02650200  RH  067%=      5-min Rain = 0
KWA1 141326Z 28003KT 27/20 A3005 RMK A01 T02670200  RH  067%=      5-min Rain = 0
KWA1 141327Z 27002KT 27/20 A3005 RMK A01 T02670202  RH  068%=      5-min Rain = 0
KWA1 141328Z 26003KT 27/20 A3005 RMK A01 T02670204  RH  068%=      5-min Rain = 0
KWA1 141329Z 26003KT 27/21 A3005 RMK A01 T02670209  RH  070%=      5-min Rain = 0
KWA1 141330Z 26003KT 27/21 A3005 RMK A01 T02660208  RH  070%=      5-min Rain = 0
KWA1 141331Z 27003KT 27/21 A3005 RMK A01 T02650208  RH  071%=      5-min Rain = 0
KWA1 141332Z 27004KT 27/21 A3005 RMK A01 T02650206  RH  070%=      5-min Rain = 0
KWA1 141333Z 27003KT 27/21 A3005 RMK A01 T02650206  RH  070%=      5-min Rain = 0
KWA1 141334Z 27003KT 27/21 A3005 RMK A01 T02660207  RH  070%=      5-min Rain = 0
KWA1 141335Z 27004KT 27/21 A3005 RMK A01 T02660206  RH  069%=      5-min Rain = 0
KWA1 141336Z 28003KT 27/21 A3005 RMK A01 T02680205  RH  068%=      5-min Rain = 0
KWA1 141337Z 28003KT 27/20 A3005 RMK A01 T02700203  RH  067%=      5-min Rain = 0
KWA1 141338Z 28003KT 27/21 A3005 RMK A01 T02720205  RH  067%=      5-min Rain = 0
KWA1 141339Z 28004KT 27/20 A3005 RMK A01 T02730204  RH  066%=      5-min Rain = 0
KWA1 141340Z 29003KT 27/20 A3005 RMK A01 T02740204  RH  066%=      5-min Rain = 0
KWA1 141341Z 29003KT 27/21 A3005 RMK A01 T02740205  RH  066%=      5-min Rain = 0
KWA1 141342Z 29003KT 28/21 A3006 RMK A01 T02750207  RH  066%=      5-min Rain = 0
KWA1 141343Z 30004KT 28/21 A3006 RMK A01 T02760205  RH  065%=      5-min Rain = 0
KWA1 141344Z 29003KT 28/21 A3006 RMK A01 T02770208  RH  066%=      5-min Rain = 0
KWA1 141345Z 30003KT 28/21 A3006 RMK A01 T02770208  RH  066%=      5-min Rain = 0
KWA1 141346Z 30003KT 28/21 A3006 RMK A01 T02770207  RH  066%=      5-min Rain = 0
KWA1 141347Z 30004KT 28/21 A3006 RMK A01 T02780207  RH  065%=      5-min Rain = 0
KWA1 141348Z 31004KT 28/21 A3006 RMK A01 T02780207  RH  065%=      5-min Rain = 0
KWA1 141349Z 31003KT 28/21 A3006 RMK A01 T02780207  RH  065%=      5-min Rain = 0
KWA1 141350Z 32005KT 28/21 A3006 RMK A01 T02790206  RH  065%=      5-min Rain = 0
KWA1 141351Z 33005KT 28/21 A3006 RMK A01 T02780205  RH  064%=      5-min Rain = 0
KWA1 141352Z 33005KT 28/21 A3006 RMK A01 T02790207  RH  065%=      5-min Rain = 0
KWA1 141353Z 33006KT 28/21 A3006 RMK A01 T02790205  RH  064%=      5-min Rain = 0
KWA1 141354Z 32006KT 28/20 A3006 RMK A01 T02790203  RH  063%=      5-min Rain = 0
KWA1 141355Z 32005KT 28/20 A3006 RMK A01 T02800204  RH  063%=      5-min Rain = 0
KWA1 141356Z 32004KT 28/20 A3006 RMK A01 T02790204  RH  064%=      5-min Rain = 0
KWA1 141357Z 32004KT 28/20 A3006 RMK A01 T02790204  RH  063%=      5-min Rain = 0
KWA1 141358Z 31004KT 28/20 A3006 RMK A01 T02800204  RH  063%=      5-min Rain = 0
KWA1 141359Z 32004KT 28/20 A3006 RMK A01 T02800204  RH  063%=      5-min Rain = 0
KWA1 141400Z 31004KT 28/20 A3006 RMK A01 T02810204  RH  063%=      5-min Rain = 0
KWA1 141401Z 30004KT 28/20 A3006 RMK A01 T02800204  RH  063%=      5-min Rain = 0
KWA1 141402Z 30004KT 28/21 A3006 RMK A01 T02800205  RH  064%=      5-min Rain = 0
KWA1 141403Z 29004KT 28/21 A3006 RMK A01 T02800205  RH  064%=      5-min Rain = 0
KWA1 141404Z 30004KT 28/20 A3006 RMK A01 T02800204  RH  063%=      5-min Rain = 0
KWA1 141405Z 30005KT 28/20 A3006 RMK A01 T02800204  RH  063%=      5-min Rain = 0
KWA1 141406Z 30005KT 28/21 A3006 RMK A01 T02810205  RH  063%=      5-min Rain = 0
KWA1 141407Z 30004KT 28/21 A3006 RMK A01 T02810205  RH  063%=      5-min Rain = 0
KWA1 141408Z 29005KT 28/21 A3006 RMK A01 T02800205  RH  064%=      5-min Rain = 0
KWA1 141409Z 29005KT 28/21 A3006 RMK A01 T02810205  RH  064%=      5-min Rain = 0
KWA1 141410Z 29004KT 28/21 A3006 RMK A01 T02810205  RH  064%=      5-min Rain = 0
KWA1 141411Z 28003KT 28/21 A3006 RMK A01 T02810206  RH  064%=      5-min Rain = 0
KWA1 141412Z 28003KT 28/21 A3006 RMK A01 T02810208  RH  064%=      5-min Rain = 0
KWA1 141413Z 28004KT 28/21 A3006 RMK A01 T02810207  RH  064%=      5-min Rain = 0
KWA1 141414Z 26003KT 28/21 A3006 RMK A01 T02820209  RH  065%=      5-min Rain = 0
KWA1 141415Z 26004KT 28/21 A3006 RMK A01 T02830212  RH  065%=      5-min Rain = 0
KWA1 141416Z 26005KT 28/21 A3006 RMK A01 T02840212  RH  065%=      5-min Rain = 0
KWA1 141417Z 25005KT 28/21 A3006 RMK A01 T02840214  RH  066%=      5-min Rain = 0
KWA1 141418Z 28004KT 28/22 A3006 RMK A01 T02840216  RH  067%=      5-min Rain = 0
KWA1 141419Z 26002KT 28/21 A3006 RMK A01 T02840210  RH  064%=      5-min Rain = 0
KWA1 141420Z 28003KT 29/21 A3006 RMK A01 T02850212  RH  065%=      5-min Rain = 0
KWA1 141421Z 29004KT 29/21 A3006 RMK A01 T02870210  RH  063%=      5-min Rain = 0
KWA1 141422Z 29004KT 29/21 A3006 RMK A01 T02870206  RH  062%=      5-min Rain = 0
KWA1 141423Z 29004KT 29/21 A3006 RMK A01 T02870208  RH  062%=      5-min Rain = 0
KWA1 141424Z 29005KT 29/21 A3006 RMK A01 T02870210  RH  063%=      5-min Rain = 0
KWA1 141425Z 28004KT 29/21 A3007 RMK A01 T02880211  RH  063%=      5-min Rain = 0
KWA1 141426Z 30005KT 29/21 A3007 RMK A01 T02890212  RH  063%=      5-min Rain = 0
KWA1 141427Z 29005KT 29/21 A3007 RMK A01 T02910209  RH  061%=      5-min Rain = 0
KWA1 141428Z 30004KT 29/21 A3007 RMK A01 T02900211  RH  062%=      5-min Rain = 0
KWA1 141429Z 30005KT 29/21 A3007 RMK A01 T02920210  RH  061%=      5-min Rain = 0
KWA1 141430Z 30005KT 29/21 A3007 RMK A01 T02930207  RH  060%=      5-min Rain = 0
KWA1 141431Z 30005KT 29/21 A3007 RMK A01 T02930209  RH  061%=      5-min Rain = 0
KWA1 141432Z 29005KT 29/21 A3007 RMK A01 T02930208  RH  060%=      5-min Rain = 0
KWA1 141433Z 28005KT 29/21 A3007 RMK A01 T02920210  RH  061%=      5-min Rain = 0
KWA1 141434Z 26004KT 29/21 A3007 RMK A01 T02920211  RH  062%=      5-min Rain = 0
KWA1 141435Z 26004KT 29/21 A3007 RMK A01 T02920210  RH  062%=      5-min Rain = 0
KWA1 141436Z 25004KT 29/21 A3007 RMK A01 T02920210  RH  061%=      5-min Rain = 0
KWA1 141437Z 26005KT 29/21 A3007 RMK A01 T02910209  RH  062%=      5-min Rain = 0
KWA1 141438Z 27004KT 29/21 A3007 RMK A01 T02890210  RH  062%=      5-min Rain = 0
KWA1 141439Z 27003KT 29/21 A3007 RMK A01 T02900208  RH  061%=      5-min Rain = 0
KWA1 141440Z 28004KT 29/21 A3007 RMK A01 T02910211  RH  062%=      5-min Rain = 0
KWA1 141441Z 30005KT 29/21 A3007 RMK A01 T02920210  RH  061%=      5-min Rain = 0
KWA1 141442Z 30005KT 29/21 A3007 RMK A01 T02920210  RH  061%=      5-min Rain = 0
KWA1 141443Z 30005KT 29/21 A3007 RMK A01 T02930208  RH  060%=      5-min Rain = 0
KWA1 141444Z 29005KT 29/21 A3007 RMK A01 T02930209  RH  061%=      5-min Rain = 0
KWA1 141445Z 29004KT 29/21 A3008 RMK A01 T02940210  RH  060%=      5-min Rain = 0
KWA1 141446Z 28005KT 30/21 A3008 RMK A01 T02950209  RH  060%=      5-min Rain = 0
KWA1 141447Z 28005KT 30/21 A3008 RMK A01 T02960213  RH  061%=      5-min Rain = 0
KWA1 141448Z 27005KT 30/21 A3008 RMK A01 T02970210  RH  059%=      5-min Rain = 0
KWA1 141449Z 28006KT 30/21 A3008 RMK A01 T02980210  RH  059%=      5-min Rain = 0
KWA1 141450Z 28004KT 30/21 A3008 RMK A01 T02960211  RH  060%=      5-min Rain = 0
KWA1 141451Z 28006KT 30/21 A3008 RMK A01 T02970210  RH  060%=      5-min Rain = 0
KWA1 141452Z 29004KT 30/21 A3008 RMK A01 T02970208  RH  059%=      5-min Rain = 0
KWA1 141453Z 27005KT 30/21 A3008 RMK A01 T02970210  RH  060%=      5-min Rain = 0
KWA1 141454Z 29005KT 30/21 A3008 RMK A01 T02970212  RH  060%=      5-min Rain = 0
KWA1 141455Z 28005KT 30/21 A3008 RMK A01 T02970212  RH  060%=      5-min Rain = 0
KWA1 141456Z 27004KT 30/21 A3008 RMK A01 T02970211  RH  060%=      5-min Rain = 0
KWA1 141457Z 27004KT 30/21 A3008 RMK A01 T02980210  RH  059%=      5-min Rain = 0
KWA1 141458Z 27005KT 30/21 A3008 RMK A01 T02980212  RH  060%=      5-min Rain = 0
KWA1 141459Z 29004KT 30/21 A3008 RMK A01 T02990212  RH  060%=      5-min Rain = 0
KWA1 141500Z 29005KT 30/21 A3008 RMK A01 T02990213  RH  060%=      5-min Rain = 0
KWA1 141501Z 30004KT 30/21 A3008 RMK A01 T03000213  RH  060%=      5-min Rain = 0
KWA1 141502Z 27004KT 30/21 A3008 RMK A01 T02990213  RH  060%=      5-min Rain = 0
KWA1 141503Z 25003KT 30/22 A3008 RMK A01 T02990215  RH  061%=      5-min Rain = 0
KWA1 141504Z 28003KT 30/22 A3008 RMK A01 T02990217  RH  061%=      5-min Rain = 0
KWA1 141505Z 28005KT 30/22 A3008 RMK A01 T03020215  RH  060%=      5-min Rain = 0
KWA1 141506Z 29005KT 30/21 A3009 RMK A01 T03030213  RH  059%=      5-min Rain = 0
KWA1 141507Z 30006KT 30/21 A3009 RMK A01 T03040213  RH  058%=      5-min Rain = 0
KWA1 141508Z 31006KT 30/21 A3009 RMK A01 T03040210  RH  057%=      5-min Rain = 0
KWA1 141509Z 30006KT 30/21 A3009 RMK A01 T03020212  RH  058%=      5-min Rain = 0
KWA1 141510Z 30004KT 30/21 A3009 RMK A01 T03020210  RH  058%=      5-min Rain = 0
KWA1 141511Z 30003KT 30/21 A3009 RMK A01 T03030212  RH  058%=      5-min Rain = 0
KWA1 141512Z 29005KT 31/21 A3009 RMK A01 T03060212  RH  057%=      5-min Rain = 0
KWA1 141513Z 29005KT 31/21 A3009 RMK A01 T03070211  RH  057%=      5-min Rain = 0
KWA1 141514Z 29006KT 31/21 A3009 RMK A01 T03070210  RH  056%=      5-min Rain = 0
KWA1 141515Z 28005KT 31/21 A3009 RMK A01 T03060210  RH  057%=      5-min Rain = 0
KWA1 141516Z 29004KT 31/21 A3009 RMK A01 T03050210  RH  057%=      5-min Rain = 0
KWA1 141517Z 29004KT 31/21 A3009 RMK A01 T03050210  RH  057%=      5-min Rain = 0
KWA1 141518Z 28005KT 31/21 A3009 RMK A01 T03050212  RH  058%=      5-min Rain = 0
KWA1 141519Z 31004KT 31/21 A3009 RMK A01 T03060210  RH  057%=      5-min Rain = 0
KWA1 141520Z 30005KT 31/21 A3009 RMK A01 T03060211  RH  057%=      5-min Rain = 0
KWA1 141521Z 28004KT 31/21 A3009 RMK A01 T03060209  RH  056%=      5-min Rain = 0
KWA1 141522Z 30004KT 31/21 A3009 RMK A01 T03060211  RH  057%=      5-min Rain = 0
KWA1 141523Z 29006KT 31/21 A3009 RMK A01 T03070210  RH  056%=      5-min Rain = 0
KWA1 141524Z 29007KT 31/21 A3009 RMK A01 T03070210  RH  056%=      5-min Rain = 0
KWA1 141525Z 27006KT 31/21 A3009 RMK A01 T03080211  RH  056%=      5-min Rain = 0
KWA1 141526Z 25005KT 31/21 A3009 RMK A01 T03080210  RH  056%=      5-min Rain = 0
KWA1 141527Z 28004KT 31/21 A3009 RMK A01 T03060212  RH  057%=      5-min Rain = 0
KWA1 141528Z 28006KT 31/21 A3009 RMK A01 T03060211  RH  057%=      5-min Rain = 0
KWA1 141529Z 27005KT 31/21 A3009 RMK A01 T03070211  RH  057%=      5-min Rain = 0
KWA1 141530Z 29006KT 31/21 A3009 RMK A01 T03070211  RH  057%=      5-min Rain = 0
KWA1 141531Z 29005KT 31/21 A3009 RMK A01 T03080212  RH  057%=      5-min Rain = 0
KWA1 141532Z 27005KT 31/21 A3009 RMK A01 T03090210  RH  056%=      5-min Rain = 0
KWA1 141533Z 28005KT 31/21 A3009 RMK A01 T03090209  RH  055%=      5-min Rain = 0
KWA1 141534Z 30004KT 31/21 A301 RMK A01 T03090210  RH  056%=      5-min Rain = 0
KWA1 141535Z 29005KT 31/21 A301 RMK A01 T03100212  RH  056%=      5-min Rain = 0
KWA1 141536Z 30005KT 31/21 A301 RMK A01 T03110213  RH  056%=      5-min Rain = 0
KWA1 141537Z 30005KT 31/21 A301 RMK A01 T03130211  RH  055%=      5-min Rain = 0
KWA1 141538Z 28005KT 31/21 A301 RMK A01 T03130212  RH  055%=      5-min Rain = 0
KWA1 141539Z 27005KT 31/21 A301 RMK A01 T03120211  RH  055%=      5-min Rain = 0
KWA1 141540Z 26006KT 31/21 A301 RMK A01 T03090214  RH  057%=      5-min Rain = 0
KWA1 141541Z 25007KT 31/22 A301 RMK A01 T03080216  RH  058%=      5-min Rain = 0
KWA1 141542Z 29005KT 31/21 A301 RMK A01 T03070214  RH  058%=      5-min Rain = 0
KWA1 141543Z 29007KT 31/21 A301 RMK A01 T03080211  RH  056%=      5-min Rain = 0
KWA1 141544Z 29007KT 31/21 A301 RMK A01 T03090211  RH  056%=      5-min Rain = 0
KWA1 141545Z 28006KT 31/21 A301 RMK A01 T03080209  RH  056%=      5-min Rain = 0
KWA1 141546Z 27006KT 31/21 A301 RMK A01 T03080209  RH  055%=      5-min Rain = 0
KWA1 141547Z 28006KT 31/21 A301 RMK A01 T03090210  RH  056%=      5-min Rain = 0
KWA1 141548Z 27005KT 31/21 A301 RMK A01 T03090209  RH  055%=      5-min Rain = 0
KWA1 141549Z 29005KT 31/21 A301 RMK A01 T03110212  RH  056%=      5-min Rain = 0
KWA1 141550Z 32006KT 31/21 A301 RMK A01 T03120208  RH  054%=      5-min Rain = 0
KWA1 141551Z 31005KT 31/21 A301 RMK A01 T03130208  RH  054%=      5-min Rain = 0
KWA1 141552Z 30006KT 31/21 A301 RMK A01 T03140208  RH  053%=      5-min Rain = 0
KWA1 141553Z 32006KT 32/21 A301 RMK A01 T03150208  RH  053%=      5-min Rain = 0
KWA1 141554Z 31006G11KT 32/21 A301 RMK A01 T03150206  RH  053%=      5-min Rain = 0
KWA1 141555Z 31008KT 32/21 A301 RMK A01 T03150205  RH  052%=      5-min Rain = 0
KWA1 141556Z 32007KT 32/21 A301 RMK A01 T03160205  RH  052%=      5-min Rain = 0
KWA1 141557Z 33007KT 32/21 A301 RMK A01 T03160205  RH  052%=      5-min Rain = 0
KWA1 141558Z 34008KT 32/21 A301 RMK A01 T03160205  RH  052%=      5-min Rain = 0
KWA1 141559Z 34007KT 32/21 A301 RMK A01 T03170205  RH  052%=      5-min Rain = 0
KWA1 141600Z 33007KT 32/21 A301 RMK A01 T03170209  RH  053%=      5-min Rain = 0
KWA1 141601Z 30008KT 32/21 A301 RMK A01 T03220207  RH  051%=      5-min Rain = 0
KWA1 141602Z 29006KT 32/21 A301 RMK A01 T03210205  RH  050%=      5-min Rain = 0
KWA1 141603Z 32007KT 32/21 A301 RMK A01 T03190205  RH  051%=      5-min Rain = 0
KWA1 141604Z 31008KT 32/21 A301 RMK A01 T03180205  RH  051%=      5-min Rain = 0
KWA1 141605Z 32006KT 32/21 A301 RMK A01 T03170205  RH  051%=      5-min Rain = 0
KWA1 141606Z 32006KT 32/21 A301 RMK A01 T03200207  RH  051%=      5-min Rain = 0
KWA1 141607Z 32007KT 32/21 A301 RMK A01 T03210205  RH  050%=      5-min Rain = 0
KWA1 141608Z 32007KT 32/21 A301 RMK A01 T03200207  RH  051%=      5-min Rain = 0
KWA1 141609Z 31009KT 32/21 A301 RMK A01 T03210206  RH  051%=      5-min Rain = 0
KWA1 141610Z 31008KT 32/21 A301 RMK A01 T03200207  RH  051%=      5-min Rain = 0
KWA1 141611Z 30010KT 32/21 A301 RMK A01 T03210208  RH  051%=      5-min Rain = 0
KWA1 141612Z 30008KT 32/21 A301 RMK A01 T03210206  RH  050%=      5-min Rain = 0
KWA1 141613Z 29007KT 32/21 A301 RMK A01 T03210205  RH  050%=      5-min Rain = 0
KWA1 141614Z 28004KT 32/21 A301 RMK A01 T03200205  RH  051%=      5-min Rain = 0
KWA1 141615Z 28005KT 32/21 A301 RMK A01 T03170205  RH  051%=      5-min Rain = 0
KWA1 141616Z 30007KT 32/21 A301 RMK A01 T03160207  RH  052%=      5-min Rain = 0
KWA1 141617Z 31009KT 32/21 A301 RMK A01 T03190205  RH  051%=      5-min Rain = 0
KWA1 141618Z 30007KT 32/20 A301 RMK A01 T03220204  RH  050%=      5-min Rain = 0
KWA1 141619Z 29007KT 32/21 A301 RMK A01 T03220205  RH  050%=      5-min Rain = 0
KWA1 141620Z 30006KT 32/21 A301 RMK A01 T03210205  RH  050%=      5-min Rain = 0
KWA1 141621Z 30005KT 32/21 A301 RMK A01 T03210206  RH  051%=      5-min Rain = 0
KWA1 141622Z 30008KT 32/21 A301 RMK A01 T03220207  RH  051%=      5-min Rain = 0
KWA1 141623Z 30009KT 32/21 A301 RMK A01 T03230205  RH  050%=      5-min Rain = 0
KWA1 141624Z 30008KT 32/20 A301 RMK A01 T03240204  RH  049%=      5-min Rain = 0
KWA1 141625Z 29009KT 33/21 A301 RMK A01 T03270207  RH  049%=      5-min Rain = 0
KWA1 141626Z 29008KT 33/20 A301 RMK A01 T03270203  RH  048%=      5-min Rain = 0
KWA1 141627Z 30007KT 33/20 A301 RMK A01 T03250202  RH  048%=      5-min Rain = 0
KWA1 141628Z 30006KT 32/20 A301 RMK A01 T03230202  RH  049%=      5-min Rain = 0
KWA1 141629Z 29005KT 32/20 A301 RMK A01 T03230203  RH  049%=      5-min Rain = 0
KWA1 141630Z 29006KT 33/21 A301 RMK A01 T03260205  RH  049%=      5-min Rain = 0
KWA1 141631Z 30007KT 33/21 A301 RMK A01 T03290206  RH  048%=      5-min Rain = 0
KWA1 141632Z 30004KT 33/20 A301 RMK A01 T03290204  RH  048%=      5-min Rain = 0
KWA1 141633Z 32006KT 33/20 A301 RMK A01 T03280203  RH  048%=      5-min Rain = 0
KWA1 141634Z 34004KT 33/20 A301 RMK A01 T03280202  RH  048%=      5-min Rain = 0
KWA1 141635Z 01005KT 33/21 A301 RMK A01 T03280206  RH  049%=      5-min Rain = 0
KWA1 141636Z 00006KT 33/21 A301 RMK A01 T03280206  RH  049%=      5-min Rain = 0
KWA1 141637Z 34006KT 33/21 A301 RMK A01 T03290206  RH  049%=      5-min Rain = 0
KWA1 141638Z 33005KT 33/21 A301 RMK A01 T03310207  RH  048%=      5-min Rain = 0
KWA1 141639Z 32003KT 33/20 A301 RMK A01 T03340204  RH  046%=      5-min Rain = 0
KWA1 141640Z 00005KT 33/21 A301 RMK A01 T03330206  RH  048%=      5-min Rain = 0
KWA1 141641Z 35008KT 33/21 A301 RMK A01 T03300206  RH  048%=      5-min Rain = 0
KWA1 141642Z 35006KT 33/20 A301 RMK A01 T03300204  RH  048%=      5-min Rain = 0
KWA1 141643Z 36004KT 33/20 A301 RMK A01 T03290204  RH  048%=      5-min Rain = 0
KWA1 141644Z 01006KT 33/21 A301 RMK A01 T03290206  RH  048%=      5-min Rain = 0
KWA1 141645Z 34004KT 33/20 A301 RMK A01 T03280202  RH  047%=      5-min Rain = 0
KWA1 141646Z 35003KT 33/20 A301 RMK A01 T03270202  RH  048%=      5-min Rain = 0
KWA1 141647Z 36005KT 33/20 A301 RMK A01 T03290204  RH  048%=      5-min Rain = 0
KWA1 141648Z 35006KT 33/20 A301 RMK A01 T03310203  RH  047%=      5-min Rain = 0
KWA1 141649Z 33004KT 33/20 A301 RMK A01 T03300202  RH  047%=      5-min Rain = 0
KWA1 141650Z 30002KT 33/20 A301 RMK A01 T03300201  RH  047%=      5-min Rain = 0
KWA1 141651Z 35005KT 33/20 A301 RMK A01 T03310201  RH  046%=      5-min Rain = 0
KWA1 141652Z 33009KT 33/20 A301 RMK A01 T03310202  RH  047%=      5-min Rain = 0
KWA1 141653Z 32007KT 33/20 A301 RMK A01 T03320200  RH  046%=      5-min Rain = 0
KWA1 141654Z 33005KT 33/20 A301 RMK A01 T03310201  RH  046%=      5-min Rain = 0
KWA1 141655Z 35004KT 33/20 A301 RMK A01 T03320201  RH  046%=      5-min Rain = 0
KWA1 141656Z 01004KT 33/20 A301 RMK A01 T03300202  RH  047%=      5-min Rain = 0
KWA1 141657Z 36004KT 33/20 A301 RMK A01 T03290203  RH  048%=      5-min Rain = 0
KWA1 141658Z 01005KT 33/20 A301 RMK A01 T03310203  RH  047%=      5-min Rain = 0
KWA1 141659Z 35006KT 33/21 A301 RMK A01 T03330206  RH  047%=      5-min Rain = 0
KWA1 141700Z 32006KT 34/20 A301 RMK A01 T03350202  RH  046%=      5-min Rain = 0
KWA1 141701Z 32004KT 33/20 A301 RMK A01 T03340200  RH  045%=      5-min Rain = 0
KWA1 141702Z 31003KT 33/20 A301 RMK A01 T03310198  RH  046%=      5-min Rain = 0
KWA1 141703Z 34005KT 33/20 A301 RMK A01 T03290200  RH  047%=      5-min Rain = 0
KWA1 141704Z 33006KT 33/20 A3009 RMK A01 T03300199  RH  046%=      5-min Rain = 0
KWA1 141705Z 34005KT 34/20 A3009 RMK A01 T03350197  RH  044%=      5-min Rain = 0
KWA1 141706Z 34006KT 34/20 A3009 RMK A01 T03360197  RH  044%=      5-min Rain = 0
KWA1 141707Z 35004KT 33/20 A3009 RMK A01 T03330197  RH  045%=      5-min Rain = 0
KWA1 141708Z 33004KT 33/20 A3009 RMK A01 T03310197  RH  045%=      5-min Rain = 0
KWA1 141709Z 34006KT 33/20 A3009 RMK A01 T03320200  RH  046%=      5-min Rain = 0
KWA1 141710Z 31004KT 34/20 A3009 RMK A01 T03350197  RH  044%=      5-min Rain = 0
KWA1 141711Z 33005KT 34/20 A3009 RMK A01 T03360201  RH  045%=      5-min Rain = 0
KWA1 141712Z 01005KT 34/20 A301 RMK A01 T03380199  RH  044%=      5-min Rain = 0
KWA1 141713Z 03003KT 34/20 A301 RMK A01 T03350198  RH  045%=      5-min Rain = 0
KWA1 141714Z 35004KT 33/20 A301 RMK A01 T03330200  RH  046%=      5-min Rain = 0
KWA1 141715Z 34006KT 33/20 A301 RMK A01 T03340202  RH  046%=      5-min Rain = 0
KWA1 141716Z 32007KT 34/20 A301 RMK A01 T03360202  RH  045%=      5-min Rain = 0
KWA1 141717Z 34005KT 34/20 A301 RMK A01 T03360200  RH  045%=      5-min Rain = 0
KWA1 141718Z 35007KT 34/21 A3009 RMK A01 T03350207  RH  047%=      5-min Rain = 0
KWA1 141719Z 35007KT 34/20 A3009 RMK A01 T03360203  RH  046%=      5-min Rain = 0
KWA1 141720Z 00007KT 34/20 A3009 RMK A01 T03370203  RH  046%=      5-min Rain = 0
KWA1 141721Z 36006KT 34/21 A3009 RMK A01 T03390205  RH  046%=      5-min Rain = 0
KWA1 141722Z 01005KT 34/20 A3009 RMK A01 T03390204  RH  045%=      5-min Rain = 0
KWA1 141723Z 01007KT 34/20 A3009 RMK A01 T03360204  RH  046%=      5-min Rain = 0
KWA1 141724Z 35005KT 34/21 A3009 RMK A01 T03360205  RH  046%=      5-min Rain = 0
KWA1 141725Z 33004KT 34/20 A3009 RMK A01 T03370202  RH  045%=      5-min Rain = 0
KWA1 141726Z 33006KT 34/20 A3009 RMK A01 T03360202  RH  046%=      5-min Rain = 0
KWA1 141727Z 35006KT 34/20 A3009 RMK A01 T03360204  RH  046%=      5-min Rain = 0
KWA1 141728Z 01004KT 34/21 A3009 RMK A01 T03360206  RH  046%=      5-min Rain = 0
KWA1 141729Z 34005KT 34/21 A3009 RMK A01 T03370206  RH  046%=      5-min Rain = 0
KWA1 141730Z 32003KT 34/20 A3009 RMK A01 T03380204  RH  046%=      5-min Rain = 0
KWA1 141731Z 34002KT 34/21 A3009 RMK A01 T03360206  RH  047%=      5-min Rain = 0
KWA1 141732Z 35005KT 34/21 A3009 RMK A01 T03380210  RH  047%=      5-min Rain = 0
KWA1 141733Z 34006KT 35/21 A3009 RMK A01 T03450208  RH  045%=      5-min Rain = 0
KWA1 141734Z 02004KT 35/21 A3009 RMK A01 T03460209  RH  045%=      5-min Rain = 0
KWA1 141735Z 05004KT 34/21 A3009 RMK A01 T03440207  RH  045%=      5-min Rain = 0
KWA1 141736Z 07001KT 34/21 A3009 RMK A01 T03400206  RH  045%=      5-min Rain = 0
KWA1 141737Z 03006G12KT 34/21 A3009 RMK A01 T03400207  RH  046%=      5-min Rain = 0
KWA1 141738Z 35008G14KT 35/21 A3009 RMK A01 T03450209  RH  045%=      5-min Rain = 0
KWA1 141739Z 36011KT 35/21 A3009 RMK A01 T03480210  RH  045%=      5-min Rain = 0
KWA1 141740Z 35009KT 35/21 A3009 RMK A01 T03470207  RH  044%=      5-min Rain = 0
KWA1 141741Z 33007KT 35/21 A3009 RMK A01 T03450205  RH  044%=      5-min Rain = 0
KWA1 141742Z 32008KT 34/20 A3009 RMK A01 T03410204  RH  045%=      5-min Rain = 0
KWA1 141743Z 31005KT 34/20 A3009 RMK A01 T03400204  RH  045%=      5-min Rain = 0
KWA1 141744Z 33005KT 34/20 A3009 RMK A01 T03390203  RH  045%=      5-min Rain = 0
KWA1 141745Z 01007KT 34/21 A3009 RMK A01 T03390210  RH  047%=      5-min Rain = 0
KWA1 141746Z 02005KT 34/21 A3009 RMK A01 T03430207  RH  045%=      5-min Rain = 0
KWA1 141747Z 03006KT 34/21 A3009 RMK A01 T03400205  RH  045%=      5-min Rain = 0
KWA1 141748Z 04006KT 34/21 A3008 RMK A01 T03390207  RH  046%=      5-min Rain = 0
KWA1 141749Z 34005G10KT 34/21 A3008 RMK A01 T03390205  RH  045%=      5-min Rain = 0
KWA1 141750Z 34009KT 34/21 A3008 RMK A01 T03400207  RH  046%=      5-min Rain = 0
KWA1 141751Z 34008KT 34/21 A3008 RMK A01 T03440206  RH  045%=      5-min Rain = 0
KWA1 141752Z 34008KT 35/21 A3008 RMK A01 T03530211  RH  044%=      5-min Rain = 0
KWA1 141753Z 33007KT 35/20 A3008 RMK A01 T03530204  RH  042%=      5-min Rain = 0
KWA1 141754Z 33004KT 35/20 A3008 RMK A01 T03480204  RH  043%=      5-min Rain = 0
KWA1 141755Z 32006KT 35/20 A3008 RMK A01 T03460204  RH  044%=      5-min Rain = 0
KWA1 141756Z 35006KT 35/20 A3008 RMK A01 T03450204  RH  044%=      5-min Rain = 0
KWA1 141757Z 34007KT 35/21 A3008 RMK A01 T03460207  RH  044%=      5-min Rain = 0
KWA1 141758Z 01008KT 35/21 A3008 RMK A01 T03490205  RH  043%=      5-min Rain = 0
KWA1 141759Z 04008KT 35/20 A3008 RMK A01 T03480201  RH  042%=      5-min Rain = 0
KWA1 141800Z 04005KT 34/20 A3008 RMK A01 T03430200  RH  043%=      5-min Rain = 0
KWA1 141801Z 03006KT 34/20 A3008 RMK A01 T03400202  RH  044%=      5-min Rain = 0
KWA1 141802Z 01003KT 34/20 A3008 RMK A01 T03380203  RH  045%=      5-min Rain = 0
KWA1 141803Z 02001KT 34/20 A3008 RMK A01 T03380200  RH  044%=      5-min Rain = 0
KWA1 141804Z 01001KT 34/20 A3007 RMK A01 T03390202  RH  045%=      5-min Rain = 0
KWA1 141805Z 02002KT 34/21 A3008 RMK A01 T03420205  RH  045%=      5-min Rain = 0
KWA1 141806Z 06005KT 34/21 A3008 RMK A01 T03440205  RH  044%=      5-min Rain = 0
KWA1 141807Z 03004KT 34/21 A3008 RMK A01 T03440207  RH  045%=      5-min Rain = 0
KWA1 141808Z 03005KT 34/21 A3008 RMK A01 T03440205  RH  044%=      5-min Rain = 0
KWA1 141809Z 02008KT 34/21 A3008 RMK A01 T03420206  RH  045%=      5-min Rain = 0
KWA1 141810Z 01007KT 34/21 A3008 RMK A01 T03430207  RH  045%=      5-min Rain = 0
KWA1 141811Z 00007KT 35/21 A3008 RMK A01 T03450206  RH  044%=      5-min Rain = 0
KWA1 141812Z 36008KT 35/21 A3008 RMK A01 T03460208  RH  045%=      5-min Rain = 0
KWA1 141813Z 35009KT 35/21 A3008 RMK A01 T03480206  RH  044%=      5-min Rain = 0
KWA1 141814Z 35008KT 35/21 A3008 RMK A01 T03480209  RH  044%=      5-min Rain = 0
KWA1 141815Z 36006KT 35/21 A3008 RMK A01 T03490208  RH  044%=      5-min Rain = 0
KWA1 141816Z 35005KT 35/21 A3007 RMK A01 T03480207  RH  044%=      5-min Rain = 0
KWA1 141817Z 33006KT 35/20 A3007 RMK A01 T03460204  RH  044%=      5-min Rain = 0
KWA1 141818Z 35007KT 35/20 A3007 RMK A01 T03470203  RH  043%=      5-min Rain = 0
KWA1 141819Z 01008KT 35/21 A3007 RMK A01 T03500207  RH  043%=      5-min Rain = 0
KWA1 141820Z 00006KT 35/21 A3007 RMK A01 T03510206  RH  043%=      5-min Rain = 0
KWA1 141821Z 36005KT 35/20 A3007 RMK A01 T03500203  RH  042%=      5-min Rain = 0
KWA1 141822Z 01010KT 35/21 A3007 RMK A01 T03480206  RH  044%=      5-min Rain = 0
KWA1 141823Z 36010KT 35/21 A3007 RMK A01 T03520206  RH  043%=      5-min Rain = 0
KWA1 141824Z 36007KT 35/21 A3007 RMK A01 T03540206  RH  042%=      5-min Rain = 0
KWA1 141825Z 00009KT 36/21 A3007 RMK A01 T03550205  RH  042%=      5-min Rain = 0
KWA1 141826Z 00008KT 35/21 A3007 RMK A01 T03530205  RH  042%=      5-min Rain = 0
KWA1 141827Z 36007KT 35/21 A3007 RMK A01 T03530205  RH  042%=      5-min Rain = 0
KWA1 141828Z 01007G12KT 35/20 A3007 RMK A01 T03520204  RH  042%=      5-min Rain = 0
KWA1 141829Z 02010KT 35/20 A3007 RMK A01 T03510204  RH  042%=      5-min Rain = 0
KWA1 141830Z 01009KT 35/21 A3007 RMK A01 T03530206  RH  042%=      5-min Rain = 0
KWA1 141831Z 01008KT 36/20 A3007 RMK A01 T03550203  RH  041%=      5-min Rain = 0
KWA1 141832Z 36007KT 35/20 A3007 RMK A01 T03540202  RH  041%=      5-min Rain = 0
KWA1 141833Z 36007KT 35/20 A3007 RMK A01 T03520201  RH  041%=      5-min Rain = 0
KWA1 141834Z 01005KT 35/20 A3007 RMK A01 T03500203  RH  042%=      5-min Rain = 0
KWA1 141835Z 00006KT 35/20 A3007 RMK A01 T03520203  RH  042%=      5-min Rain = 0
KWA1 141836Z 35004KT 36/20 A3006 RMK A01 T03550204  RH  041%=      5-min Rain = 0
KWA1 141837Z 33004KT 36/20 A3006 RMK A01 T03560201  RH  040%=      5-min Rain = 0
KWA1 141838Z 34007KT 35/20 A3006 RMK A01 T03540202  RH  041%=      5-min Rain = 0
KWA1 141839Z 01008KT 35/20 A3006 RMK A01 T03520202  RH  042%=      5-min Rain = 0
KWA1 141840Z 01010KT 35/20 A3006 RMK A01 T03520203  RH  042%=      5-min Rain = 0
KWA1 141841Z 02009KT 36/20 A3006 RMK A01 T03550203  RH  041%=      5-min Rain = 0
KWA1 141842Z 03009KT 36/20 A3006 RMK A01 T03550201  RH  041%=      5-min Rain = 0
KWA1 141843Z 03005KT 35/20 A3006 RMK A01 T03520200  RH  041%=      5-min Rain = 0
KWA1 141844Z 04007KT 35/20 A3006 RMK A01 T03510202  RH  042%=      5-min Rain = 0
KWA1 141845Z 04007KT 35/20 A3006 RMK A01 T03530201  RH  041%=      5-min Rain = 0
KWA1 141846Z 01007KT 35/20 A3006 RMK A01 T03540202  RH  041%=      5-min Rain = 0
KWA1 141847Z 01004KT 35/20 A3006 RMK A01 T03540198  RH  040%=      5-min Rain = 0
KWA1 141848Z 01008KT 35/20 A3006 RMK A01 T03500202  RH  042%=      5-min Rain = 0
KWA1 141849Z 00011KT 35/21 A3006 RMK A01 T03520206  RH  043%=      5-min Rain = 0
KWA1 141850Z 00010KT 35/20 A3006 RMK A01 T03540204  RH  041%=      5-min Rain = 0
KWA1 141851Z 02009KT 35/21 A3007 RMK A01 T03540205  RH  042%=      5-min Rain = 0
KWA1 141852Z 01006KT 35/21 A3007 RMK A01 T03530205  RH  042%=      5-min Rain = 0
KWA1 141853Z 01004KT 35/20 A3007 RMK A01 T03530202  RH  041%=      5-min Rain = 0
KWA1 141854Z 35005KT 35/20 A3007 RMK A01 T03530199  RH  041%=      5-min Rain = 0
KWA1 141855Z 01005KT 35/20 A3007 RMK A01 T03500199  RH  041%=      5-min Rain = 0
KWA1 141856Z 01009KT 35/20 A3007 RMK A01 T03490200  RH  042%=      5-min Rain = 0
KWA1 141857Z 01006KT 35/20 A3007 RMK A01 T03500198  RH  041%=      5-min Rain = 0
KWA1 141858Z 02005KT 35/20 A3007 RMK A01 T03500196  RH  041%=      5-min Rain = 0
KWA1 141859Z 03003KT 35/20 A3007 RMK A01 T03520195  RH  040%=      5-min Rain = 0
KWA1 141900Z 04003KT 35/20 A3007 RMK A01 T03520196  RH  040%=      5-min Rain = 0
KWA1 141901Z 05003KT 35/20 A3006 RMK A01 T03510196  RH  040%=      5-min Rain = 0
KWA1 141902Z 01006KT 35/20 A3006 RMK A01 T03510198  RH  041%=      5-min Rain = 0
KWA1 141903Z 03005KT 35/20 A3006 RMK A01 T03500198  RH  041%=      5-min Rain = 0
KWA1 141904Z 04005KT 35/20 A3006 RMK A01 T03510201  RH  042%=      5-min Rain = 0
KWA1 141905Z 03008KT 35/20 A3006 RMK A01 T03540200  RH  040%=      5-min Rain = 0
KWA1 141906Z 04004KT 35/19 A3006 RMK A01 T03530193  RH  039%=      5-min Rain = 0
KWA1 141907Z 06005KT 35/19 A3006 RMK A01 T03510193  RH  040%=      5-min Rain = 0
KWA1 141908Z 07005KT 35/20 A3006 RMK A01 T03520195  RH  040%=      5-min Rain = 0
KWA1 141909Z 07007KT 36/20 A3006 RMK A01 T03560198  RH  040%=      5-min Rain = 0
KWA1 141910Z 06006KT 36/20 A3006 RMK A01 T03570195  RH  039%=      5-min Rain = 0
KWA1 141911Z 06006KT 36/20 A3006 RMK A01 T03560195  RH  039%=      5-min Rain = 0
KWA1 141912Z 04004KT 35/19 A3006 RMK A01 T03540192  RH  039%=      5-min Rain = 0
KWA1 141913Z 06003KT 35/19 A3005 RMK A01 T03530191  RH  038%=      5-min Rain = 0
KWA1 141914Z 10003KT 35/19 A3005 RMK A01 T03530192  RH  039%=      5-min Rain = 0
KWA1 141915Z 06003KT 35/20 A3005 RMK A01 T03540196  RH  040%=      5-min Rain = 0
KWA1 141916Z 04003KT 36/20 A3005 RMK A01 T03550195  RH  039%=      5-min Rain = 0
KWA1 141917Z 05002KT 36/19 A3005 RMK A01 T03550192  RH  039%=      5-min Rain = 0
KWA1 141918Z 02004KT 35/19 A3005 RMK A01 T03540191  RH  038%=      5-min Rain = 0
KWA1 141919Z 04003KT 35/19 A3005 RMK A01 T03540190  RH  038%=      5-min Rain = 0
KWA1 141920Z 05003KT 35/19 A3005 RMK A01 T03510189  RH  039%=      5-min Rain = 0
KWA1 141921Z 12002KT 35/20 A3004 RMK A01 T03500195  RH  040%=      5-min Rain = 0
KWA1 141922Z 17005KT 36/20 A3004 RMK A01 T03550202  RH  041%=      5-min Rain = 0
KWA1 141923Z 18006KT 36/20 A3004 RMK A01 T03570204  RH  041%=      5-min Rain = 0
KWA1 141924Z 17005KT 36/21 A3004 RMK A01 T03580207  RH  041%=      5-min Rain = 0
KWA1 141925Z 17005KT 36/21 A3004 RMK A01 T03580209  RH  042%=      5-min Rain = 0
KWA1 141926Z 19005KT 36/20 A3004 RMK A01 T03570200  RH  040%=      5-min Rain = 0
KWA1 141927Z 19005KT 35/20 A3004 RMK A01 T03540198  RH  040%=      5-min Rain = 0
KWA1 141928Z 20001KT 35/20 A3004 RMK A01 T03520197  RH  040%=      5-min Rain = 0
KWA1 141929Z 23003KT 35/20 A3004 RMK A01 T03530201  RH  041%=      5-min Rain = 0
KWA1 141930Z 23002KT 36/20 A3004 RMK A01 T03550204  RH  041%=      5-min Rain = 0
KWA1 141931Z 23003KT 36/20 A3004 RMK A01 T03560202  RH  041%=      5-min Rain = 0
KWA1 141932Z 26003KT 36/20 A3004 RMK A01 T03560199  RH  040%=      5-min Rain = 0
KWA1 141933Z 35005KT 36/20 A3004 RMK A01 T03580200  RH  040%=      5-min Rain = 0
KWA1 141934Z 00007KT 36/20 A3004 RMK A01 T03620204  RH  040%=      5-min Rain = 0
KWA1 141935Z 00005KT 37/20 A3004 RMK A01 T03670203  RH  038%=      5-min Rain = 0
KWA1 141936Z 35005KT 37/20 A3004 RMK A01 T03670201  RH  038%=      5-min Rain = 0
KWA1 141937Z 35006KT 36/20 A3004 RMK A01 T03630200  RH  039%=      5-min Rain = 0
KWA1 141938Z 00003KT 36/20 A3004 RMK A01 T03580199  RH  040%=      5-min Rain = 0
KWA1 141939Z 07002KT 35/20 A3004 RMK A01 T03540199  RH  040%=      5-min Rain = 0
KWA1 141940Z 10002KT 35/20 A3004 RMK A01 T03540198  RH  040%=      5-min Rain = 0
KWA1 141941Z 03004KT 35/20 A3004 RMK A01 T03520200  RH  041%=      5-min Rain = 0
KWA1 141942Z 04007KT 35/20 A3004 RMK A01 T03540201  RH  041%=      5-min Rain = 0
KWA1 141943Z 04006KT 36/20 A3004 RMK A01 T03550200  RH  040%=      5-min Rain = 0
KWA1 141944Z 01005KT 35/20 A3004 RMK A01 T03520199  RH  041%=      5-min Rain = 0
KWA1 141945Z 35003KT 35/20 A3004 RMK A01 T03510198  RH  041%=      5-min Rain = 0
KWA1 141946Z 07002KT 35/20 A3003 RMK A01 T03500200  RH  042%=      5-min Rain = 0
KWA1 141947Z 07005KT 35/20 A3003 RMK A01 T03510201  RH  042%=      5-min Rain = 0
KWA1 141948Z 07004KT 35/20 A3003 RMK A01 T03510200  RH  041%=      5-min Rain = 0
KWA1 141949Z 05005KT 35/20 A3003 RMK A01 T03520200  RH  041%=      5-min Rain = 0
KWA1 141950Z 08004KT 35/20 A3003 RMK A01 T03510199  RH  041%=      5-min Rain = 0
KWA1 141951Z 12005KT 35/20 A3003 RMK A01 T03500198  RH  041%=      5-min Rain = 0
KWA1 141952Z 12004KT 35/20 A3003 RMK A01 T03470198  RH  042%=      5-min Rain = 0
KWA1 141953Z 05004G10KT 35/20 A3003 RMK A01 T03460199  RH  042%=      5-min Rain = 0
KWA1 141954Z 02006G11KT 35/20 A3003 RMK A01 T03490201  RH  042%=      5-min Rain = 0
KWA1 141955Z 02004KT 35/20 A3003 RMK A01 T03510200  RH  041%=      5-min Rain = 0
KWA1 141956Z 03006KT 35/20 A3003 RMK A01 T03510200  RH  041%=      5-min Rain = 0
KWA1 141957Z 03003KT 35/20 A3003 RMK A01 T03520200  RH  041%=      5-min Rain = 0
KWA1 141958Z 02002KT 35/20 A3003 RMK A01 T03530199  RH  041%=      5-min Rain = 0
KWA1 141959Z 09002KT 35/20 A3003 RMK A01 T03520198  RH  041%=      5-min Rain = 0
KWA1 142000Z 09004KT 35/20 A3003 RMK A01 T03500198  RH  041%=      5-min Rain = 0
KWA1 142001Z 15005G11KT 35/20 A3003 RMK A01 T03490197  RH  041%=      5-min Rain = 0
KWA1 142002Z 15012KT 34/20 A3003 RMK A01 T03440197  RH  042%=      5-min Rain = 0
KWA1 142003Z 16012KT 33/20 A3003 RMK A01 T03340195  RH  044%=      5-min Rain = 0
KWA1 142004Z 16012KT 33/20 A3003 RMK A01 T03290196  RH  046%=      5-min Rain = 0
KWA1 142005Z 15011KT 33/20 A3003 RMK A01 T03270199  RH  047%=      5-min Rain = 0
KWA1 142006Z 15010KT 33/20 A3003 RMK A01 T03270201  RH  048%=      5-min Rain = 0
KWA1 142007Z 15013KT 33/20 A3003 RMK A01 T03290203  RH  048%=      5-min Rain = 0
KWA1 142008Z 15011KT 33/21 A3003 RMK A01 T03300205  RH  048%=      5-min Rain = 0
KWA1 142009Z 15010KT 33/20 A3003 RMK A01 T03290202  RH  047%=      5-min Rain = 0
KWA1 142010Z 14009KT 33/20 A3003 RMK A01 T03280203  RH  048%=      5-min Rain = 0
KWA1 142011Z 15010KT 33/21 A3003 RMK A01 T03300205  RH  048%=      5-min Rain = 0
KWA1 142012Z 16011KT 33/20 A3003 RMK A01 T03300204  RH  047%=      5-min Rain = 0
KWA1 142013Z 15010KT 33/21 A3003 RMK A01 T03310208  RH  048%=      5-min Rain = 0
KWA1 142014Z 16010KT 34/21 A3003 RMK A01 T03350206  RH  047%=      5-min Rain = 0
KWA1 142015Z 15011KT 34/21 A3002 RMK A01 T03350205  RH  047%=      5-min Rain = 0
KWA1 142016Z 15012KT 33/20 A3002 RMK A01 T03340204  RH  047%=      5-min Rain = 0
KWA1 142017Z 15012KT 33/20 A3002 RMK A01 T03310202  RH  047%=      5-min Rain = 0
KWA1 142018Z 15010KT 33/21 A3002 RMK A01 T03320208  RH  048%=      5-min Rain = 0
KWA1 142019Z 14011KT 33/21 A3002 RMK A01 T03340205  RH  047%=      5-min Rain = 0
KWA1 142020Z 16009KT 34/21 A3002 RMK A01 T03350211  RH  048%=      5-min Rain = 0
KWA1 142021Z 17012KT 34/21 A3002 RMK A01 T03370209  RH  047%=      5-min Rain = 0
KWA1 142022Z 17011KT 34/21 A3002 RMK A01 T03380206  RH  046%=      5-min Rain = 0
KWA1 142023Z 17010KT 34/21 A3002 RMK A01 T03380205  RH  046%=      5-min Rain = 0
KWA1 142024Z 17010KT 34/20 A3002 RMK A01 T03400203  RH  045%=      5-min Rain = 0
KWA1 142025Z 17013KT 34/21 A3002 RMK A01 T03410205  RH  045%=      5-min Rain = 0
KWA1 142026Z 18011KT 34/20 A3002 RMK A01 T03410201  RH  044%=      5-min Rain = 0
KWA1 142027Z 17009KT 34/20 A3001 RMK A01 T03410203  RH  044%=      5-min Rain = 0
KWA1 142028Z 16010KT 34/21 A3001 RMK A01 T03420205  RH  045%=      5-min Rain = 0
KWA1 142029Z 17011KT 34/20 A3001 RMK A01 T03420202  RH  044%=      5-min Rain = 0
KWA1 142030Z 16010KT 34/20 A3001 RMK A01 T03410204  RH  045%=      5-min Rain = 0
KWA1 142031Z 16011KT 34/20 A3001 RMK A01 T03410201  RH  044%=      5-min Rain = 0
KWA1 142032Z 16011KT 34/20 A3001 RMK A01 T03400200  RH  044%=      5-min Rain = 0
KWA1 142033Z 17008KT 34/20 A3001 RMK A01 T03390197  RH  043%=      5-min Rain = 0
KWA1 142034Z 19010KT 34/20 A3001 RMK A01 T03390200  RH  044%=      5-min Rain = 0
KWA1 142035Z 18009KT 34/20 A3001 RMK A01 T03410200  RH  044%=      5-min Rain = 0
KWA1 142036Z 18011KT 34/20 A3001 RMK A01 T03440202  RH  044%=      5-min Rain = 0
KWA1 142037Z 16010KT 35/20 A3001 RMK A01 T03450201  RH  043%=      5-min Rain = 0
KWA1 142038Z 14010KT 35/20 A3001 RMK A01 T03450201  RH  043%=      5-min Rain = 0
KWA1 142039Z 14010KT 35/20 A3001 RMK A01 T03450203  RH  044%=      5-min Rain = 0
KWA1 142040Z 15009KT 35/20 A3001 RMK A01 T03460201  RH  043%=      5-min Rain = 0
KWA1 142041Z 14009KT 35/20 A3001 RMK A01 T03460204  RH  043%=      5-min Rain = 0
KWA1 142042Z 15009KT 35/20 A3001 RMK A01 T03460201  RH  043%=      5-min Rain = 0
KWA1 142043Z 15007KT 35/20 A3001 RMK A01 T03460204  RH  043%=      5-min Rain = 0
KWA1 142044Z 14007KT 35/21 A3001 RMK A01 T03460205  RH  044%=      5-min Rain = 0
KWA1 142045Z 13007KT 35/20 A3001 RMK A01 T03490201  RH  042%=      5-min Rain = 0
KWA1 142046Z 13007KT 35/20 A3001 RMK A01 T03500201  RH  042%=      5-min Rain = 0
KWA1 142047Z 11004KT 35/20 A3001 RMK A01 T03490197  RH  041%=      5-min Rain = 0
KWA1 142048Z 11005G13KT 35/19 A3001 RMK A01 T03490194  RH  040%=      5-min Rain = 0
KWA1 142049Z 12007KT 35/20 A3001 RMK A01 T03520198  RH  041%=      5-min Rain = 0
KWA1 142050Z 13006KT 36/20 A3001 RMK A01 T03550197  RH  040%=      5-min Rain = 0
KWA1 142051Z 11007KT 35/20 A3001 RMK A01 T03540196  RH  040%=      5-min Rain = 0
KWA1 142052Z 14007KT 35/20 A3001 RMK A01 T03520197  RH  040%=      5-min Rain = 0
KWA1 142053Z 12004KT 35/20 A3001 RMK A01 T03500196  RH  041%=      5-min Rain = 0
KWA1 142054Z 15004KT 35/20 A3001 RMK A01 T03510196  RH  040%=      5-min Rain = 0
KWA1 142055Z 16007KT 35/20 A3001 RMK A01 T03520200  RH  041%=      5-min Rain = 0
KWA1 142056Z 19004KT 35/20 A3001 RMK A01 T03530197  RH  040%=      5-min Rain = 0
KWA1 142057Z 16008KT 35/20 A3001 RMK A01 T03540202  RH  041%=      5-min Rain = 0
KWA1 142058Z 15008KT 36/20 A3001 RMK A01 T03550202  RH  041%=      5-min Rain = 0
KWA1 142059Z 15008KT 35/20 A3001 RMK A01 T03530200  RH  041%=      5-min Rain = 0
KWA1 142100Z 18005KT 35/20 A30 RMK A01 T03520198  RH  040%=      5-min Rain = 0
KWA1 142101Z 19004KT 35/20 A30 RMK A01 T03520198  RH  040%=      5-min Rain = 0
KWA1 142102Z 11004KT 35/20 A30 RMK A01 T03540200  RH  041%=      5-min Rain = 0
KWA1 142103Z 10006KT 36/20 A30 RMK A01 T03580197  RH  039%=      5-min Rain = 0
KWA1 142104Z 16005KT 36/21 A30 RMK A01 T03620206  RH  040%=      5-min Rain = 0
KWA1 142105Z 16006KT 36/20 A30 RMK A01 T03630204  RH  040%=      5-min Rain = 0
KWA1 142106Z 15006KT 36/21 A30 RMK A01 T03620205  RH  040%=      5-min Rain = 0
KWA1 142107Z 14006KT 36/20 A30 RMK A01 T03620202  RH  039%=      5-min Rain = 0
KWA1 142108Z 13006KT 36/20 A30 RMK A01 T03620204  RH  040%=      5-min Rain = 0
KWA1 142109Z 12007KT 36/20 A30 RMK A01 T03600203  RH  040%=      5-min Rain = 0
KWA1 142110Z 12007KT 36/20 A30 RMK A01 T03620201  RH  039%=      5-min Rain = 0
KWA1 142111Z 12004KT 36/19 A30 RMK A01 T03630194  RH  037%=      5-min Rain = 0
KWA1 142112Z 13003KT 36/20 A30 RMK A01 T03600196  RH  038%=      5-min Rain = 0
KWA1 142113Z 17002KT 36/20 A30 RMK A01 T03610201  RH  039%=      5-min Rain = 0
KWA1 142114Z 13007KT 36/20 A30 RMK A01 T03620203  RH  040%=      5-min Rain = 0
KWA1 142115Z 14007KT 37/21 A30 RMK A01 T03650205  RH  039%=      5-min Rain = 0
KWA1 142116Z 15008KT 37/21 A30 RMK A01 T03660210  RH  040%=      5-min Rain = 0
KWA1 142117Z 14010KT 37/21 A30 RMK A01 T03650205  RH  039%=      5-min Rain = 0
KWA1 142118Z 13011KT 36/20 A30 RMK A01 T03630204  RH  040%=      5-min Rain = 0
KWA1 142119Z 11009KT 36/20 A30 RMK A01 T03610196  RH  038%=      5-min Rain = 0
KWA1 142120Z 13009KT 36/20 A30 RMK A01 T03590199  RH  039%=      5-min Rain = 0
KWA1 142121Z 15008KT 36/20 A30 RMK A01 T03590202  RH  040%=      5-min Rain = 0
KWA1 142122Z 15006KT 36/20 A30 RMK A01 T03550197  RH  040%=      5-min Rain = 0
KWA1 142123Z 14003KT 35/20 A30 RMK A01 T03540196  RH  040%=      5-min Rain = 0
KWA1 142124Z 14002KT 36/20 A2999 RMK A01 T03550197  RH  040%=      5-min Rain = 0
KWA1 142125Z 16001KT 36/20 A2999 RMK A01 T03570198  RH  039%=      5-min Rain = 0
KWA1 142126Z 20003KT 36/20 A2999 RMK A01 T03590199  RH  039%=      5-min Rain = 0
KWA1 142127Z 21001KT 36/20 A2999 RMK A01 T03600198  RH  039%=      5-min Rain = 0
KWA1 142128Z 20005KT 36/21 A2999 RMK A01 T03600208  RH  041%=      5-min Rain = 0
KWA1 142129Z 19005KT 36/21 A2999 RMK A01 T03570207  RH  042%=      5-min Rain = 0
KWA1 142130Z 20005KT 36/20 A2999 RMK A01 T03550197  RH  040%=      5-min Rain = 0
KWA1 142131Z 19004KT 35/20 A2999 RMK A01 T03540203  RH  041%=      5-min Rain = 0
KWA1 142132Z 19003KT 35/20 A2999 RMK A01 T03540199  RH  040%=      5-min Rain = 0
KWA1 142133Z 17003KT 35/20 A2999 RMK A01 T03530200  RH  041%=      5-min Rain = 0
KWA1 142134Z 14006KT 35/20 A2999 RMK A01 T03540202  RH  041%=      5-min Rain = 0
KWA1 142135Z 14006KT 35/20 A2999 RMK A01 T03540202  RH  041%=      5-min Rain = 0
KWA1 142136Z 15005KT 35/20 A2999 RMK A01 T03540202  RH  041%=      5-min Rain = 0
KWA1 142137Z 15005KT 35/20 A2999 RMK A01 T03540204  RH  042%=      5-min Rain = 0
KWA1 142138Z 16005KT 35/20 A2999 RMK A01 T03540199  RH  041%=      5-min Rain = 0
KWA1 142139Z 16007KT 35/21 A2999 RMK A01 T03530205  RH  042%=      5-min Rain = 0
KWA1 142140Z 17006KT 35/20 A2999 RMK A01 T03530202  RH  041%=      5-min Rain = 0
KWA1 142141Z 14006G11KT 35/20 A2999 RMK A01 T03530199  RH  041%=      5-min Rain = 0
KWA1 142142Z 13010KT 35/20 A2999 RMK A01 T03540204  RH  042%=      5-min Rain = 0
KWA1 142143Z 13009KT 36/20 A2999 RMK A01 T03550204  RH  041%=      5-min Rain = 0
KWA1 142144Z 12007KT 35/20 A2999 RMK A01 T03540200  RH  041%=      5-min Rain = 0
KWA1 142145Z 15008KT 35/20 A2999 RMK A01 T03530203  RH  041%=      5-min Rain = 0
KWA1 142146Z 15007KT 35/20 A2999 RMK A01 T03510203  RH  042%=      5-min Rain = 0
KWA1 142147Z 16010KT 35/20 A2999 RMK A01 T03500203  RH  042%=      5-min Rain = 0
KWA1 142148Z 13008KT 35/20 A2999 RMK A01 T03500204  RH  043%=      5-min Rain = 0
KWA1 142149Z 12007KT 35/20 A2999 RMK A01 T03490199  RH  042%=      5-min Rain = 0
KWA1 142150Z 16006KT 35/20 A2999 RMK A01 T03510204  RH  042%=      5-min Rain = 0
KWA1 142151Z 16005KT 35/21 A2999 RMK A01 T03520205  RH  042%=      5-min Rain = 0
KWA1 142152Z 14007KT 35/20 A2999 RMK A01 T03540204  RH  042%=      5-min Rain = 0
KWA1 142153Z 14007KT 35/20 A2999 RMK A01 T03520202  RH  041%=      5-min Rain = 0
KWA1 142154Z 15006KT 35/20 A2999 RMK A01 T03500202  RH  042%=      5-min Rain = 0
KWA1 142155Z 16008KT 35/21 A2999 RMK A01 T03500205  RH  043%=      5-min Rain = 0
KWA1 142156Z 16008KT 35/21 A2999 RMK A01 T03490205  RH  043%=      5-min Rain = 0
KWA1 142157Z 16008KT 35/21 A2999 RMK A01 T03480207  RH  044%=      5-min Rain = 0
KWA1 142158Z 15007KT 35/21 A2999 RMK A01 T03480205  RH  043%=      5-min Rain = 0
KWA1 142159Z 14007KT 35/20 A2999 RMK A01 T03480204  RH  043%=      5-min Rain = 0
KWA1 142200Z 15006KT 35/21 A2999 RMK A01 T03480205  RH  043%=      5-min Rain = 0
KWA1 142201Z 14008KT 35/20 A2999 RMK A01 T03470203  RH  043%=      5-min Rain = 0
KWA1 142202Z 15009KT 35/20 A2999 RMK A01 T03470203  RH  043%=      5-min Rain = 0
KWA1 142203Z 15012KT 35/20 A2999 RMK A01 T03460200  RH  042%=      5-min Rain = 0
KWA1 142204Z 15011KT 35/20 A2999 RMK A01 T03450202  RH  043%=      5-min Rain = 0
KWA1 142205Z 15009KT 34/20 A2999 RMK A01 T03440201  RH  043%=      5-min Rain = 0
KWA1 142206Z 15009KT 34/20 A2999 RMK A01 T03440202  RH  043%=      5-min Rain = 0
KWA1 142207Z 14006KT 34/20 A2999 RMK A01 T03430200  RH  043%=      5-min Rain = 0
KWA1 142208Z 15008KT 34/20 A2999 RMK A01 T03430203  RH  044%=      5-min Rain = 0
KWA1 142209Z 15009KT 34/21 A2999 RMK A01 T03440205  RH  044%=      5-min Rain = 0
KWA1 142210Z 14010KT 34/20 A2999 RMK A01 T03440202  RH  043%=      5-min Rain = 0
KWA1 142211Z 15009KT 34/20 A2999 RMK A01 T03440202  RH  044%=      5-min Rain = 0
KWA1 142212Z 16008KT 35/21 A2999 RMK A01 T03450205  RH  044%=      5-min Rain = 0
KWA1 142213Z 14008KT 35/21 A2999 RMK A01 T03460205  RH  044%=      5-min Rain = 0
KWA1 142214Z 14007KT 35/20 A2999 RMK A01 T03460204  RH  044%=      5-min Rain = 0
KWA1 142215Z 16009KT 35/20 A2999 RMK A01 T03450203  RH  043%=      5-min Rain = 0
KWA1 142216Z 16009KT 35/20 A2999 RMK A01 T03450203  RH  043%=      5-min Rain = 0
KWA1 142217Z 17010KT 34/20 A2999 RMK A01 T03440202  RH  044%=      5-min Rain = 0
KWA1 142218Z 17010KT 34/20 A2999 RMK A01 T03440199  RH  043%=      5-min Rain = 0
KWA1 142219Z 18010KT 34/20 A2999 RMK A01 T03440200  RH  043%=      5-min Rain = 0
KWA1 142220Z 17010KT 35/20 A30 RMK A01 T03460199  RH  042%=      5-min Rain = 0
KWA1 142221Z 17008KT 35/20 A30 RMK A01 T03450199  RH  042%=      5-min Rain = 0
KWA1 142222Z 16008KT 34/20 A30 RMK A01 T03440203  RH  044%=      5-min Rain = 0
KWA1 142223Z 16010KT 34/20 A30 RMK A01 T03440202  RH  044%=      5-min Rain = 0
KWA1 142224Z 16009KT 34/20 A30 RMK A01 T03430201  RH  044%=      5-min Rain = 0
KWA1 142225Z 14009KT 34/20 A30 RMK A01 T03430203  RH  044%=      5-min Rain = 0
KWA1 142226Z 15010KT 34/20 A30 RMK A01 T03420201  RH  044%=      5-min Rain = 0
KWA1 142227Z 14008KT 34/20 A30 RMK A01 T03420200  RH  044%=      5-min Rain = 0
KWA1 142228Z 15008KT 34/20 A30 RMK A01 T03410200  RH  044%=      5-min Rain = 0
KWA1 142229Z 15007KT 34/20 A30 RMK A01 T03410202  RH  044%=      5-min Rain = 0
KWA1 142230Z 15008KT 34/20 A2999 RMK A01 T03410201  RH  044%=      5-min Rain = 0
KWA1 142231Z 14009KT 34/20 A2999 RMK A01 T03410201  RH  044%=      5-min Rain = 0
KWA1 142232Z 14008KT 34/20 A2999 RMK A01 T03410201  RH  044%=      5-min Rain = 0
KWA1 142233Z 14007KT 34/20 A2999 RMK A01 T03410203  RH  045%=      5-min Rain = 0
KWA1 142234Z 15007KT 34/20 A30 RMK A01 T03410200  RH  044%=      5-min Rain = 0
KWA1 142235Z 14008KT 34/20 A30 RMK A01 T03400199  RH  044%=      5-min Rain = 0
KWA1 142236Z 15008KT 34/20 A30 RMK A01 T03400200  RH  044%=      5-min Rain = 0
KWA1 142237Z 14008KT 34/20 A30 RMK A01 T03400201  RH  044%=      5-min Rain = 0
KWA1 142238Z 15009KT 34/20 A30 RMK A01 T03400201  RH  044%=      5-min Rain = 0
KWA1 142239Z 14008KT 34/20 A30 RMK A01 T03400202  RH  044%=      5-min Rain = 0
KWA1 142240Z 16008KT 34/20 A30 RMK A01 T03400203  RH  045%=      5-min Rain = 0
KWA1 142241Z 17008KT 34/21 A30 RMK A01 T03400206  RH  046%=      5-min Rain = 0
KWA1 142242Z 18008KT 34/20 A30 RMK A01 T03400204  RH  045%=      5-min Rain = 0
KWA1 142243Z 17008KT 34/20 A30 RMK A01 T03410200  RH  044%=      5-min Rain = 0
KWA1 142244Z 17009KT 34/20 A30 RMK A01 T03420202  RH  044%=      5-min Rain = 0
KWA1 142245Z 17010KT 34/20 A30 RMK A01 T03420201  RH  044%=      5-min Rain = 0
KWA1 142246Z 17007KT 34/20 A30 RMK A01 T03410202  RH  044%=      5-min Rain = 0
KWA1 142247Z 17009KT 34/20 A30 RMK A01 T03400200  RH  044%=      5-min Rain = 0
KWA1 142248Z 17007KT 34/20 A30 RMK A01 T03400199  RH  044%=      5-min Rain = 0
KWA1 142249Z 17008KT 34/20 A30 RMK A01 T03400202  RH  044%=      5-min Rain = 0
KWA1 142250Z 17007KT 34/20 A30 RMK A01 T03400204  RH  045%=      5-min Rain = 0
KWA1 142251Z 16007KT 34/21 A30 RMK A01 T03400207  RH  046%=      5-min Rain = 0
KWA1 142252Z 16006KT 34/21 A30 RMK A01 T03400206  RH  045%=      5-min Rain = 0
KWA1 142253Z 16007KT 34/20 A30 RMK A01 T03410204  RH  045%=      5-min Rain = 0
KWA1 142254Z 17008KT 34/20 A30 RMK A01 T03400201  RH  044%=      5-min Rain = 0
KWA1 142255Z 17007KT 34/20 A30 RMK A01 T03400199  RH  044%=      5-min Rain = 0
KWA1 142256Z 17008KT 34/20 A30 RMK A01 T03400202  RH  044%=      5-min Rain = 0
KWA1 142257Z 18011KT 34/20 A2999 RMK A01 T03410201  RH  044%=      5-min Rain = 0
KWA1 142258Z 18010KT 34/20 A2999 RMK A01 T03410200  RH  044%=      5-min Rain = 0
KWA1 142259Z 17011KT 34/20 A2999 RMK A01 T03410200  RH  044%=      5-min Rain = 0
KWA1 142300Z 17010KT 34/20 A2999 RMK A01 T03410200  RH  043%=      5-min Rain = 0
KWA1 142301Z 18010KT 34/20 A2999 RMK A01 T03400200  RH  044%=      5-min Rain = 0
KWA1 142302Z 19009KT 34/20 A2999 RMK A01 T03390203  RH  045%=      5-min Rain = 0
KWA1 142303Z 18009KT 34/20 A2999 RMK A01 T03390204  RH  045%=      5-min Rain = 0
KWA1 142304Z 18011KT 34/20 A2999 RMK A01 T03390200  RH  044%=      5-min Rain = 0
KWA1 142305Z 18012KT 34/20 A2999 RMK A01 T03390196  RH  043%=      5-min Rain = 0
KWA1 142306Z 18011KT 34/20 A2999 RMK A01 T03380196  RH  043%=      5-min Rain = 0
KWA1 142307Z 17012KT 34/20 A2999 RMK A01 T03380196  RH  043%=      5-min Rain = 0
KWA1 142308Z 18009KT 34/20 A2999 RMK A01 T03380196  RH  043%=      5-min Rain = 0
KWA1 142309Z 18009KT 34/20 A2999 RMK A01 T03390198  RH  044%=      5-min Rain = 0
KWA1 142310Z 18009KT 34/20 A2999 RMK A01 T03390195  RH  043%=      5-min Rain = 0
KWA1 142311Z 17009KT 34/20 A2999 RMK A01 T03400195  RH  043%=      5-min Rain = 0
KWA1 142312Z 18009KT 34/20 A30 RMK A01 T03390196  RH  043%=      5-min Rain = 0
KWA1 142313Z 18011KT 34/20 A30 RMK A01 T03390196  RH  043%=      5-min Rain = 0
KWA1 142314Z 18011KT 34/20 A30 RMK A01 T03380195  RH  043%=      5-min Rain = 0
KWA1 142315Z 18009KT 34/20 A2999 RMK A01 T03370198  RH  044%=      5-min Rain = 0
KWA1 142316Z 18010KT 34/20 A2999 RMK A01 T03370196  RH  044%=      5-min Rain = 0
KWA1 142317Z 18010KT 34/20 A2999 RMK A01 T03370198  RH  044%=      5-min Rain = 0
KWA1 142318Z 18010KT 34/19 A2999 RMK A01 T03360194  RH  043%=      5-min Rain = 0
KWA1 142319Z 18009KT 34/19 A2999 RMK A01 T03360193  RH  043%=      5-min Rain = 0
KWA1 142320Z 18011KT 34/19 A2999 RMK A01 T03360193  RH  043%=      5-min Rain = 0
KWA1 142321Z 18009KT 34/19 A2999 RMK A01 T03350193  RH  043%=      5-min Rain = 0
KWA1 142322Z 18010KT 33/19 A2999 RMK A01 T03340189  RH  042%=      5-min Rain = 0
KWA1 142323Z 18012KT 33/19 A2999 RMK A01 T03340187  RH  042%=      5-min Rain = 0
KWA1 142324Z 19012KT 33/19 A2999 RMK A01 T03330186  RH  042%=      5-min Rain = 0
KWA1 142325Z 18010KT 33/19 A2999 RMK A01 T03320187  RH  042%=      5-min Rain = 0
KWA1 142326Z 18011KT 33/19 A2999 RMK A01 T03310188  RH  043%=      5-min Rain = 0
KWA1 142327Z 18011KT 33/19 A2999 RMK A01 T03320187  RH  042%=      5-min Rain = 0
KWA1 142328Z 18013KT 33/19 A2999 RMK A01 T03320185  RH  042%=      5-min Rain = 0
KWA1 142329Z 18013KT 33/18 A2999 RMK A01 T03310184  RH  042%=      5-min Rain = 0
KWA1 142330Z 19013KT 33/18 A2999 RMK A01 T03280184  RH  042%=      5-min Rain = 0
KWA1 142331Z 18013KT 33/18 A2999 RMK A01 T03270184  RH  043%=      5-min Rain = 0
KWA1 142332Z 18011KT 33/19 A2999 RMK A01 T03260185  RH  043%=      5-min Rain = 0
KWA1 142333Z 18013KT 33/19 A2999 RMK A01 T03260186  RH  043%=      5-min Rain = 0
KWA1 142334Z 18013KT 33/18 A2999 RMK A01 T03250184  RH  043%=      5-min Rain = 0
KWA1 142335Z 18012KT 32/19 A2999 RMK A01 T03240185  RH  044%=      5-min Rain = 0
KWA1 142336Z 18012KT 32/19 A2999 RMK A01 T03230187  RH  044%=      5-min Rain = 0
KWA1 142337Z 18013KT 32/19 A2999 RMK A01 T03230186  RH  044%=      5-min Rain = 0
KWA1 142338Z 18010KT 32/19 A2999 RMK A01 T03220186  RH  044%=      5-min Rain = 0
KWA1 142339Z 18011KT 32/19 A2999 RMK A01 T03220187  RH  045%=      5-min Rain = 0
KWA1 142340Z 19011KT 32/19 A2999 RMK A01 T03220187  RH  045%=      5-min Rain = 0
KWA1 142341Z 19010KT 32/19 A2999 RMK A01 T03220188  RH  045%=      5-min Rain = 0
KWA1 142342Z 19009KT 32/19 A2999 RMK A01 T03220189  RH  046%=      5-min Rain = 0
KWA1 142343Z 18009KT 32/19 A2999 RMK A01 T03210190  RH  046%=      5-min Rain = 0
KWA1 142344Z 19009KT 32/19 A2999 RMK A01 T03210189  RH  046%=      5-min Rain = 0
KWA1 142345Z 19010KT 32/19 A2999 RMK A01 T03200190  RH  046%=      5-min Rain = 0
KWA1 142346Z 18010KT 32/19 A2999 RMK A01 T03200188  RH  045%=      5-min Rain = 0
KWA1 142347Z 18010KT 32/19 A2999 RMK A01 T03200188  RH  045%=      5-min Rain = 0
KWA1 142348Z 18009KT 32/19 A2999 RMK A01 T03220188  RH  045%=      5-min Rain = 0
KWA1 142349Z 18008KT 32/19 A2999 RMK A01 T03220188  RH  045%=      5-min Rain = 0
KWA1 142350Z 19010KT 32/19 A2999 RMK A01 T03220187  RH  045%=      5-min Rain = 0
KWA1 142351Z 17008KT 32/19 A2999 RMK A01 T03230188  RH  045%=      5-min Rain = 0
KWA1 142352Z 18008KT 32/19 A2999 RMK A01 T03220191  RH  046%=      5-min Rain = 0
KWA1 142353Z 19011KT 32/19 A2999 RMK A01 T03220187  RH  045%=      5-min Rain = 0
KWA1 142354Z 18009KT 32/19 A2999 RMK A01 T03220185  RH  044%=      5-min Rain = 0
KWA1 142355Z 18010KT 32/19 A2999 RMK A01 T03220185  RH  044%=      5-min Rain = 0
KWA1 142356Z 18010KT 32/19 A2999 RMK A01 T03220186  RH  044%=      5-min Rain = 0
KWA1 142357Z 19009KT 32/19 A2999 RMK A01 T03220188  RH  045%=      5-min Rain = 0
KWA1 142358Z 19010KT 32/19 A2999 RMK A01 T03220189  RH  045%=      5-min Rain = 0
KWA1 142359Z 19010KT 32/19 A2999 RMK A01 T03210186  RH  045%=      5-min Rain = 0
KWA1 150000Z 19009KT 32/19 A2999 RMK A01 T03210187  RH  045%=      5-min Rain = 0
KWA1 150001Z 19010KT 32/19 A2999 RMK A01 T03210188  RH  045%=      5-min Rain = 0
KWA1 150002Z 18010KT 32/19 A2999 RMK A01 T03210188  RH  045%=      5-min Rain = 0
KWA1 150003Z 19009KT 32/19 A2999 RMK A01 T03210187  RH  045%=      5-min Rain = 0
KWA1 150004Z 19008KT 32/19 A2999 RMK A01 T03210188  RH  045%=      5-min Rain = 0
KWA1 150005Z 19008KT 32/19 A2999 RMK A01 T03210189  RH  046%=      5-min Rain = 0
KWA1 150006Z 20008KT 32/19 A2999 RMK A01 T03200191  RH  046%=      5-min Rain = 0
KWA1 150007Z 19010KT 32/19 A2999 RMK A01 T03190190  RH  046%=      5-min Rain = 0
KWA1 150008Z 19009KT 32/19 A2999 RMK A01 T03190188  RH  046%=      5-min Rain = 0
KWA1 150009Z 19008KT 32/19 A2999 RMK A01 T03190191  RH  047%=      5-min Rain = 0
KWA1 150010Z 20009KT 32/19 A2999 RMK A01 T03180191  RH  047%=      5-min Rain = 0
KWA1 150011Z 20010KT 32/19 A2999 RMK A01 T03180190  RH  047%=      5-min Rain = 0
KWA1 150012Z 20009KT 32/19 A2999 RMK A01 T03180190  RH  047%=      5-min Rain = 0
KWA1 150013Z 19008KT 32/19 A2999 RMK A01 T03180191  RH  047%=      5-min Rain = 0
KWA1 150014Z 19009KT 32/19 A2999 RMK A01 T03180190  RH  047%=      5-min Rain = 0
KWA1 150015Z 19009KT 32/19 A2999 RMK A01 T03190190  RH  047%=      5-min Rain = 0
KWA1 150016Z 20012KT 32/19 A2999 RMK A01 T03180188  RH  046%=      5-min Rain = 0
KWA1 150017Z 20009KT 32/19 A2999 RMK A01 T03180190  RH  047%=      5-min Rain = 0
KWA1 150018Z 20010KT 32/19 A2999 RMK A01 T03170190  RH  047%=      5-min Rain = 0
KWA1 150019Z 21009KT 32/19 A2999 RMK A01 T03160190  RH  047%=      5-min Rain = 0
KWA1 150020Z 21009KT 32/19 A2999 RMK A01 T03150192  RH  048%=      5-min Rain = 0
KWA1 150021Z 20010KT 32/19 A2999 RMK A01 T03150191  RH  048%=      5-min Rain = 0
KWA1 150022Z 20008KT 31/19 A2999 RMK A01 T03140192  RH  048%=      5-min Rain = 0
KWA1 150023Z 20011KT 31/19 A2999 RMK A01 T03140192  RH  048%=      5-min Rain = 0
KWA1 150024Z 20010KT 31/19 A2999 RMK A01 T03130191  RH  048%=      5-min Rain = 0
KWA1 150025Z 21009KT 31/19 A2999 RMK A01 T03130192  RH  049%=      5-min Rain = 0
KWA1 150026Z 20009KT 31/19 A2999 RMK A01 T03130192  RH  049%=      5-min Rain = 0
KWA1 150027Z 19009KT 31/19 A2999 RMK A01 T03130193  RH  049%=      5-min Rain = 0
KWA1 150028Z 20012KT 31/19 A2999 RMK A01 T03130191  RH  049%=      5-min Rain = 0
KWA1 150029Z 20011KT 31/19 A2999 RMK A01 T03130191  RH  048%=      5-min Rain = 0
KWA1 150030Z 20009KT 31/19 A2999 RMK A01 T03130192  RH  048%=      5-min Rain = 0
KWA1 150031Z 19009KT 31/19 A2999 RMK A01 T03130192  RH  049%=      5-min Rain = 0
KWA1 150032Z 19008KT 31/19 A2999 RMK A01 T03130192  RH  049%=      5-min Rain = 0
KWA1 150033Z 20009KT 31/19 A2999 RMK A01 T03140192  RH  048%=      5-min Rain = 0
KWA1 150034Z 19008KT 31/19 A2999 RMK A01 T03140192  RH  049%=      5-min Rain = 0
KWA1 150035Z 19009KT 31/19 A2999 RMK A01 T03140193  RH  049%=      5-min Rain = 0
KWA1 150036Z 20007KT 31/19 A2999 RMK A01 T03130193  RH  049%=      5-min Rain = 0
KWA1 150037Z 20008KT 31/20 A2999 RMK A01 T03130195  RH  049%=      5-min Rain = 0
KWA1 150038Z 20007KT 31/20 A2999 RMK A01 T03130195  RH  050%=      5-min Rain = 0
KWA1 150039Z 20009KT 31/19 A2999 RMK A01 T03120194  RH  049%=      5-min Rain = 0
KWA1 150040Z 20009KT 31/19 A2999 RMK A01 T03120193  RH  049%=      5-min Rain = 0
KWA1 150041Z 19007KT 31/19 A2999 RMK A01 T03120193  RH  049%=      5-min Rain = 0
KWA1 150042Z 19007KT 31/19 A2999 RMK A01 T03120194  RH  049%=      5-min Rain = 0
KWA1 150043Z 20006KT 31/20 A2999 RMK A01 T03120195  RH  050%=      5-min Rain = 0
KWA1 150044Z 20007KT 31/20 A2999 RMK A01 T03120196  RH  050%=      5-min Rain = 0
KWA1 150045Z 22005KT 31/20 A2999 RMK A01 T03110197  RH  051%=      5-min Rain = 0
KWA1 150046Z 22006KT 31/20 A2999 RMK A01 T03100199  RH  051%=      5-min Rain = 0
KWA1 150047Z 22006KT 31/20 A2999 RMK A01 T03090198  RH  052%=      5-min Rain = 0
KWA1 150048Z 21006KT 31/20 A2999 RMK A01 T03080200  RH  053%=      5-min Rain = 0
KWA1 150049Z 21006KT 31/20 A2999 RMK A01 T03070200  RH  053%=      5-min Rain = 0
KWA1 150050Z 20006KT 31/20 A2999 RMK A01 T03070200  RH  053%=      5-min Rain = 0
KWA1 150051Z 20006KT 31/20 A30 RMK A01 T03070200  RH  053%=      5-min Rain = 0
KWA1 150052Z 21008KT 31/20 A30 RMK A01 T03070201  RH  053%=      5-min Rain = 0
KWA1 150053Z 20008KT 31/20 A30 RMK A01 T03070201  RH  053%=      5-min Rain = 0
KWA1 150054Z 21008KT 31/20 A30 RMK A01 T03070201  RH  053%=      5-min Rain = 0
KWA1 150055Z 21009KT 31/20 A30 RMK A01 T03070202  RH  054%=      5-min Rain = 0
KWA1 150056Z 21009KT 31/20 A30 RMK A01 T03070202  RH  054%=      5-min Rain = 0
KWA1 150057Z 21008KT 31/20 A30 RMK A01 T03070203  RH  054%=      5-min Rain = 0
KWA1 150058Z 21009KT 31/20 A30 RMK A01 T03070203  RH  054%=      5-min Rain = 0
KWA1 150059Z 21009KT 31/20 A30 RMK A01 T03060203  RH  054%=      5-min Rain = 0
KWA1 150100Z 21008KT 31/20 A30 RMK A01 T03060203  RH  054%=      5-min Rain = 0
KWA1 150101Z 21009KT 31/20 A30 RMK A01 T03070203  RH  054%=      5-min Rain = 0
KWA1 150102Z 21008KT 31/20 A30 RMK A01 T03060203  RH  054%=      5-min Rain = 0
KWA1 150103Z 21008KT 31/20 A30 RMK A01 T03060204  RH  054%=      5-min Rain = 0
KWA1 150104Z 21008KT 31/20 A30 RMK A01 T03060204  RH  054%=      5-min Rain = 0
KWA1 150105Z 21009KT 31/20 A30 RMK A01 T03060204  RH  054%=      5-min Rain = 0
KWA1 150106Z 21009KT 31/20 A30 RMK A01 T03060203  RH  054%=      5-min Rain = 0
KWA1 150107Z 22006KT 31/20 A30 RMK A01 T03060204  RH  054%=      5-min Rain = 0
KWA1 150108Z 22007KT 31/20 A30 RMK A01 T03050204  RH  055%=      5-min Rain = 0
KWA1 150109Z 23006KT 31/20 A30 RMK A01 T03050204  RH  055%=      5-min Rain = 0
KWA1 150110Z 22006KT 31/20 A30 RMK A01 T03050204  RH  055%=      5-min Rain = 0
KWA1 150111Z 23007KT 30/20 A30 RMK A01 T03040203  RH  055%=      5-min Rain = 0
KWA1 150112Z 23008KT 30/20 A30 RMK A01 T03040203  RH  055%=      5-min Rain = 0
KWA1 150113Z 22009KT 31/20 A30 RMK A01 T03050204  RH  055%=      5-min Rain = 0
KWA1 150114Z 22009KT 30/20 A30 RMK A01 T03040204  RH  055%=      5-min Rain = 0
KWA1 150115Z 21007KT 30/21 A30 RMK A01 T03040205  RH  055%=      5-min Rain = 0
KWA1 150116Z 21009KT 30/21 A30 RMK A01 T03040205  RH  055%=      5-min Rain = 0
KWA1 150117Z 21009KT 30/21 A30 RMK A01 T03040205  RH  055%=      5-min Rain = 0
KWA1 150118Z 21010KT 30/21 A30 RMK A01 T03040205  RH  055%=      5-min Rain = 0
KWA1 150119Z 21008KT 30/21 A30 RMK A01 T03040205  RH  056%=      5-min Rain = 0
KWA1 150120Z 22007KT 30/21 A30 RMK A01 T03040206  RH  056%=      5-min Rain = 0
KWA1 150121Z 22007KT 30/21 A30 RMK A01 T03030205  RH  056%=      5-min Rain = 0
KWA1 150122Z 23006KT 30/21 A30 RMK A01 T03030206  RH  056%=      5-min Rain = 0
KWA1 150123Z 22006KT 30/21 A30 RMK A01 T03020206  RH  056%=      5-min Rain = 0
KWA1 150124Z 22007KT 30/21 A30 RMK A01 T03020205  RH  056%=      5-min Rain = 0
KWA1 150125Z 21008KT 30/21 A3001 RMK A01 T03020205  RH  056%=      5-min Rain = 0
KWA1 150126Z 21006KT 30/21 A3001 RMK A01 T03030205  RH  056%=      5-min Rain = 0
KWA1 150127Z 21008KT 30/21 A3001 RMK A01 T03030205  RH  056%=      5-min Rain = 0
KWA1 150128Z 21008KT 30/21 A3001 RMK A01 T03030205  RH  056%=      5-min Rain = 0
KWA1 150129Z 21008KT 30/21 A3001 RMK A01 T03030205  RH  056%=      5-min Rain = 0
KWA1 150130Z 21009KT 30/20 A3001 RMK A01 T03020204  RH  056%=      5-min Rain = 0
KWA1 150131Z 22007KT 30/20 A3001 RMK A01 T03030204  RH  056%=      5-min Rain = 0
KWA1 150132Z 23006KT 30/20 A3001 RMK A01 T03030204  RH  056%=      5-min Rain = 0
KWA1 150133Z 23007KT 30/20 A3001 RMK A01 T03020204  RH  056%=      5-min Rain = 0
KWA1 150134Z 25005KT 30/20 A3001 RMK A01 T03020204  RH  056%=      5-min Rain = 0
KWA1 150135Z 25006KT 30/20 A3001 RMK A01 T03010202  RH  055%=      5-min Rain = 0
KWA1 150136Z 24006KT 30/20 A3001 RMK A01 T03010199  RH  054%=      5-min Rain = 0
KWA1 150137Z 25005KT 30/20 A3002 RMK A01 T03010199  RH  054%=      5-min Rain = 0
KWA1 150138Z 25008KT 30/20 A3002 RMK A01 T03010198  RH  054%=      5-min Rain = 0
KWA1 150139Z 25007KT 30/20 A3002 RMK A01 T03000196  RH  054%=      5-min Rain = 0
KWA1 150140Z 25008KT 30/20 A3002 RMK A01 T03000196  RH  054%=      5-min Rain = 0
KWA1 150141Z 24007KT 30/20 A3002 RMK A01 T03000195  RH  053%=      5-min Rain = 0
KWA1 150142Z 24007KT 30/19 A3002 RMK A01 T03000194  RH  053%=      5-min Rain = 0
KWA1 150143Z 24006KT 30/19 A3002 RMK A01 T02990194  RH  053%=      5-min Rain = 0
KWA1 150144Z 24007KT 30/19 A3002 RMK A01 T02990193  RH  053%=      5-min Rain = 0
KWA1 150145Z 24008KT 30/19 A3002 RMK A01 T02990192  RH  053%=      5-min Rain = 0
KWA1 150146Z 24007KT 30/19 A3002 RMK A01 T02990191  RH  052%=      5-min Rain = 0
KWA1 150147Z 24007KT 30/19 A3002 RMK A01 T02990191  RH  052%=      5-min Rain = 0
KWA1 150148Z 24008KT 30/19 A3002 RMK A01 T02990190  RH  052%=      5-min Rain = 0
KWA1 150149Z 24008KT 30/19 A3002 RMK A01 T02990190  RH  052%=      5-min Rain = 0
KWA1 150150Z 24008KT 30/19 A3002 RMK A01 T02990189  RH  052%=      5-min Rain = 0
KWA1 150151Z 24007KT 30/19 A3002 RMK A01 T02990189  RH  052%=      5-min Rain = 0
KWA1 150152Z 24008KT 30/19 A3002 RMK A01 T02990189  RH  052%=      5-min Rain = 0
KWA1 150153Z 24008KT 30/19 A3002 RMK A01 T02980187  RH  051%=      5-min Rain = 0
KWA1 150154Z 23008KT 30/19 A3002 RMK A01 T02980187  RH  051%=      5-min Rain = 0
KWA1 150155Z 23007KT 30/19 A3002 RMK A01 T02980187  RH  051%=      5-min Rain = 0
KWA1 150156Z 23007KT 30/19 A3003 RMK A01 T02980187  RH  051%=      5-min Rain = 0
KWA1 150157Z 24007KT 30/19 A3003 RMK A01 T02980187  RH  051%=      5-min Rain = 0
KWA1 150158Z 23007KT 30/19 A3003 RMK A01 T02970187  RH  051%=      5-min Rain = 0
KWA1 150159Z 24008KT 30/19 A3003 RMK A01 T02970187  RH  052%=      5-min Rain = 0
KWA1 150200Z 24007KT 30/19 A3003 RMK A01 T02970186  RH  051%=      5-min Rain = 0
KWA1 150201Z 24006KT 30/19 A3003 RMK A01 T02970187  RH  052%=      5-min Rain = 0
KWA1 150202Z 24007KT 30/19 A3003 RMK A01 T02970187  RH  052%=      5-min Rain = 0
KWA1 150203Z 24007KT 30/19 A3003 RMK A01 T02960187  RH  052%=      5-min Rain = 0
KWA1 150204Z 24007KT 30/19 A3003 RMK A01 T02960186  RH  052%=      5-min Rain = 0
KWA1 150205Z 24006KT 30/19 A3003 RMK A01 T02960187  RH  052%=      5-min Rain = 0
KWA1 150206Z 24006KT 30/19 A3003 RMK A01 T02960188  RH  052%=      5-min Rain = 0
KWA1 150207Z 24005KT 30/19 A3003 RMK A01 T02960188  RH  052%=      5-min Rain = 0
KWA1 150208Z 25006KT 30/19 A3003 RMK A01 T02960188  RH  052%=      5-min Rain = 0
KWA1 150209Z 24007KT 30/19 A3003 RMK A01 T02960187  RH  052%=      5-min Rain = 0
KWA1 150210Z 24006KT 30/19 A3003 RMK A01 T02960187  RH  052%=      5-min Rain = 0
KWA1 150211Z 25006KT 30/19 A3003 RMK A01 T02960188  RH  052%=      5-min Rain = 0
KWA1 150212Z 25006KT 30/19 A3003 RMK A01 T02960188  RH  052%=      5-min Rain = 0
KWA1 150213Z 25005KT 30/19 A3003 RMK A01 T02960188  RH  052%=      5-min Rain = 0
KWA1 150214Z 26005KT 30/19 A3004 RMK A01 T02960188  RH  052%=      5-min Rain = 0
KWA1 150215Z 27005KT 30/19 A3004 RMK A01 T02950189  RH  053%=      5-min Rain = 0
KWA1 150216Z 27004KT 30/19 A3004 RMK A01 T02960188  RH  052%=      5-min Rain = 0
KWA1 150217Z 27005KT 30/19 A3004 RMK A01 T02960188  RH  052%=      5-min Rain = 0
KWA1 150218Z 26005KT 30/19 A3004 RMK A01 T02960188  RH  052%=      5-min Rain = 0
KWA1 150219Z 26005KT 30/19 A3004 RMK A01 T02950188  RH  052%=      5-min Rain = 0
KWA1 150220Z 26005KT 30/19 A3004 RMK A01 T02950188  RH  052%=      5-min Rain = 0
KWA1 150221Z 26005KT 30/19 A3004 RMK A01 T02950189  RH  053%=      5-min Rain = 0
KWA1 150222Z 26006KT 29/19 A3004 RMK A01 T02940189  RH  053%=      5-min Rain = 0
KWA1 150223Z 26005KT 29/19 A3004 RMK A01 T02930189  RH  053%=      5-min Rain = 0
KWA1 150224Z 25005KT 29/19 A3004 RMK A01 T02930188  RH  053%=      5-min Rain = 0
KWA1 150225Z 26005KT 29/19 A3004 RMK A01 T02930188  RH  053%=      5-min Rain = 0
KWA1 150226Z 25006KT 29/19 A3004 RMK A01 T02920186  RH  053%=      5-min Rain = 0
KWA1 150227Z 25005KT 29/19 A3004 RMK A01 T02920187  RH  053%=      5-min Rain = 0
KWA1 150228Z 25005KT 29/19 A3004 RMK A01 T02920187  RH  053%=      5-min Rain = 0
KWA1 150229Z 25006KT 29/19 A3004 RMK A01 T02910187  RH  053%=      5-min Rain = 0
KWA1 150230Z 25005KT 29/19 A3004 RMK A01 T02910187  RH  053%=      5-min Rain = 0
KWA1 150231Z 25005KT 29/19 A3004 RMK A01 T02910187  RH  054%=      5-min Rain = 0
KWA1 150232Z 25005KT 29/19 A3004 RMK A01 T02900187  RH  054%=      5-min Rain = 0
KWA1 150233Z 25005KT 29/19 A3004 RMK A01 T02890187  RH  054%=      5-min Rain = 0
KWA1 150234Z 25005KT 29/19 A3004 RMK A01 T02890187  RH  054%=      5-min Rain = 0
KWA1 150235Z 24005KT 29/19 A3004 RMK A01 T02890186  RH  054%=      5-min Rain = 0
KWA1 150236Z 24004KT 29/19 A3004 RMK A01 T02890188  RH  054%=      5-min Rain = 0
KWA1 150237Z 24005KT 29/19 A3004 RMK A01 T02890187  RH  054%=      5-min Rain = 0
KWA1 150238Z 24005KT 29/19 A3005 RMK A01 T02880187  RH  054%=      5-min Rain = 0
KWA1 150239Z 24005KT 29/19 A3005 RMK A01 T02880187  RH  054%=      5-min Rain = 0
KWA1 150240Z 24005KT 29/19 A3005 RMK A01 T02870186  RH  054%=      5-min Rain = 0
KWA1 150241Z 24005KT 29/19 A3005 RMK A01 T02870186  RH  054%=      5-min Rain = 0
KWA1 150242Z 24005KT 29/19 A3005 RMK A01 T02880185  RH  054%=      5-min Rain = 0
KWA1 150243Z 25005KT 29/19 A3005 RMK A01 T02880185  RH  054%=      5-min Rain = 0
KWA1 150244Z 25005KT 29/19 A3005 RMK A01 T02880185  RH  054%=      5-min Rain = 0
KWA1 150245Z 25006KT 29/19 A3005 RMK A01 T02880185  RH  054%=      5-min Rain = 0
KWA1 150246Z 25006KT 29/19 A3005 RMK A01 T02880185  RH  054%=      5-min Rain = 0
KWA1 150247Z 25005KT 29/19 A3005 RMK A01 T02880185  RH  054%=      5-min Rain = 0
KWA1 150248Z 24005KT 29/19 A3005 RMK A01 T02870185  RH  054%=      5-min Rain = 0
KWA1 150249Z 24005KT 29/19 A3005 RMK A01 T02870186  RH  054%=      5-min Rain = 0
KWA1 150250Z 24005KT 29/19 A3005 RMK A01 T02870186  RH  054%=      5-min Rain = 0
KWA1 150251Z 24005KT 29/19 A3005 RMK A01 T02860186  RH  054%=      5-min Rain = 0
KWA1 150252Z 24004KT 29/19 A3005 RMK A01 T02860186  RH  055%=      5-min Rain = 0
KWA1 150253Z 23005KT 29/19 A3005 RMK A01 T02860186  RH  055%=      5-min Rain = 0
KWA1 150254Z 23005KT 29/19 A3005 RMK A01 T02850186  RH  055%=      5-min Rain = 0
KWA1 150255Z 23004KT 29/19 A3005 RMK A01 T02850186  RH  055%=      5-min Rain = 0
KWA1 150256Z 23004KT 28/19 A3006 RMK A01 T02840186  RH  055%=      5-min Rain = 0
KWA1 150257Z 23005KT 28/19 A3006 RMK A01 T02840186  RH  055%=      5-min Rain = 0
KWA1 150258Z 24005KT 28/19 A3006 RMK A01 T02840186  RH  055%=      5-min Rain = 0
KWA1 150259Z 23005KT 28/18 A3006 RMK A01 T02830184  RH  055%=      5-min Rain = 0
KWA1 150300Z 24004KT 28/19 A3006 RMK A01 T02840185  RH  055%=      5-min Rain = 0
KWA1 150301Z 24004KT 28/19 A3006 RMK A01 T02840185  RH  055%=      5-min Rain = 0
KWA1 150302Z 24004KT 28/19 A3006 RMK A01 T02840185  RH  055%=      5-min Rain = 0
KWA1 150303Z 23004KT 28/19 A3006 RMK A01 T02840186  RH  055%=      5-min Rain = 0
KWA1 150304Z 23004KT 28/19 A3006 RMK A01 T02840186  RH  055%=      5-min Rain = 0
KWA1 150305Z 23004KT 28/19 A3006 RMK A01 T02830186  RH  055%=      5-min Rain = 0
KWA1 150306Z 23003KT 28/19 A3007 RMK A01 T02830186  RH  056%=      5-min Rain = 0
KWA1 150307Z 23003KT 28/19 A3007 RMK A01 T02830186  RH  056%=      5-min Rain = 0
KWA1 150308Z 22003KT 28/19 A3007 RMK A01 T02830186  RH  056%=      5-min Rain = 0
KWA1 150309Z 22003KT 28/19 A3007 RMK A01 T02830186  RH  056%=      5-min Rain = 0
KWA1 150310Z 22003KT 28/19 A3007 RMK A01 T02830186  RH  056%=      5-min Rain = 0
KWA1 150311Z 21003KT 28/19 A3007 RMK A01 T02830187  RH  056%=      5-min Rain = 0
KWA1 150312Z 20003KT 28/19 A3007 RMK A01 T02820188  RH  056%=      5-min Rain = 0
KWA1 150313Z 20003KT 28/19 A3007 RMK A01 T02830189  RH  057%=      5-min Rain = 0
KWA1 150314Z 19003KT 28/19 A3007 RMK A01 T02820190  RH  057%=      5-min Rain = 0
KWA1 150315Z 19003KT 28/19 A3007 RMK A01 T02820188  RH  057%=      5-min Rain = 0
KWA1 150316Z 18003KT 28/19 A3007 RMK A01 T02820188  RH  057%=      5-min Rain = 0
KWA1 150317Z 18003KT 28/19 A3007 RMK A01 T02820188  RH  057%=      5-min Rain = 0
KWA1 150318Z 18003KT 28/19 A3007 RMK A01 T02820188  RH  057%=      5-min Rain = 0
KWA1 150319Z 18003KT 28/19 A3008 RMK A01 T02820187  RH  056%=      5-min Rain = 0
KWA1 150320Z 19003KT 28/19 A3008 RMK A01 T02820187  RH  056%=      5-min Rain = 0
KWA1 150321Z 18003KT 28/19 A3008 RMK A01 T02820186  RH  056%=      5-min Rain = 0
KWA1 150322Z 19003KT 28/19 A3008 RMK A01 T02820185  RH  056%=      5-min Rain = 0
KWA1 150323Z 19003KT 28/19 A3008 RMK A01 T02820185  RH  055%=      5-min Rain = 0
KWA1 150324Z 19003KT 28/19 A3008 RMK A01 T02830185  RH  055%=      5-min Rain = 0
KWA1 150325Z 19003KT 28/19 A3007 RMK A01 T02830186  RH  056%=      5-min Rain = 0
KWA1 150326Z 19003KT 28/19 A3007 RMK A01 T02830186  RH  056%=      5-min Rain = 0
KWA1 150327Z 19003KT 28/19 A3008 RMK A01 T02830186  RH  056%=      5-min Rain = 0
KWA1 150328Z 19003KT 28/19 A3008 RMK A01 T02820187  RH  056%=      5-min Rain = 0
KWA1 150329Z 18003KT 28/19 A3008 RMK A01 T02820187  RH  056%=      5-min Rain = 0
KWA1 150330Z 18003KT 28/19 A3008 RMK A01 T02810187  RH  057%=      5-min Rain = 0
KWA1 150331Z 17003KT 28/19 A3008 RMK A01 T02800186  RH  057%=      5-min Rain = 0
KWA1 150332Z 17003KT 28/19 A3008 RMK A01 T02790187  RH  057%=      5-min Rain = 0
KWA1 150333Z 17003KT 28/19 A3008 RMK A01 T02790187  RH  057%=      5-min Rain = 0
KWA1 150334Z 16003KT 28/19 A3008 RMK A01 T02780187  RH  058%=      5-min Rain = 0
KWA1 150335Z 14003KT 28/19 A3009 RMK A01 T02770187  RH  058%=      5-min Rain = 0
KWA1 150336Z 13003KT 28/19 A3009 RMK A01 T02770186  RH  058%=      5-min Rain = 0
KWA1 150337Z 12003KT 28/18 A3009 RMK A01 T02770184  RH  057%=      5-min Rain = 0
KWA1 150338Z 11002KT 28/18 A3009 RMK A01 T02760183  RH  057%=      5-min Rain = 0
KWA1 150339Z 10002KT 28/18 A3009 RMK A01 T02770182  RH  056%=      5-min Rain = 0
KWA1 150340Z 09002KT 28/18 A3009 RMK A01 T02770182  RH  056%=      5-min Rain = 0
KWA1 150341Z 09002KT 28/18 A3009 RMK A01 T02770182  RH  056%=      5-min Rain = 0
KWA1 150342Z 08002KT 28/18 A3009 RMK A01 T02770180  RH  056%=      5-min Rain = 0
KWA1 150343Z 06003KT 28/18 A3009 RMK A01 T02760179  RH  055%=      5-min Rain = 0
KWA1 150344Z 05003KT 28/18 A3009 RMK A01 T02750179  RH  056%=      5-min Rain = 0
KWA1 150345Z 04004KT 28/18 A3009 RMK A01 T02750178  RH  056%=      5-min Rain = 0
KWA1 150346Z 04004KT 27/18 A3009 RMK A01 T02740178  RH  056%=      5-min Rain = 0
KWA1 150347Z 04004KT 27/18 A3009 RMK A01 T02740178  RH  056%=      5-min Rain = 0
KWA1 150348Z 04003KT 27/18 A301 RMK A01 T02740178  RH  056%=      5-min Rain = 0
KWA1 150349Z 05002KT 27/18 A301 RMK A01 T02740178  RH  056%=      5-min Rain = 0
KWA1 150350Z 05002KT 27/18 A301 RMK A01 T02740179  RH  056%=      5-min Rain = 0
KWA1 150351Z 05001KT 28/18 A301 RMK A01 T02750180  RH  056%=      5-min Rain = 0
KWA1 150352Z 05001KT 28/18 A301 RMK A01 T02750179  RH  056%=      5-min Rain = 0
KWA1 150353Z 05000KT 28/18 A301 RMK A01 T02750179  RH  056%=      5-min Rain = 0
KWA1 150354Z 05000KT 28/18 A301 RMK A01 T02750179  RH  056%=      5-min Rain = 0
KWA1 150355Z 05000KT 28/18 A3009 RMK A01 T02750177  RH  055%=      5-min Rain = 0
KWA1 150356Z 05000KT 28/18 A3009 RMK A01 T02750175  RH  054%=      5-min Rain = 0
KWA1 150357Z 00000KT 28/18 A3009 RMK A01 T02750177  RH  055%=      5-min Rain = 0
KWA1 150358Z 00000KT 28/18 A3009 RMK A01 T02750178  RH  055%=      5-min Rain = 0
KWA1 150359Z 00000KT 28/18 A3009 RMK A01 T02750177  RH  055%=      5-min Rain = 0
KWA1 150400Z 05000KT 27/18 A3009 RMK A01 T02740177  RH  055%=      5-min Rain = 0
KWA1 150401Z 05000KT 27/18 A3009 RMK A01 T02740178  RH  056%=      5-min Rain = 0
KWA1 150402Z 05000KT 27/18 A3009 RMK A01 T02740178  RH  056%=      5-min Rain = 0
KWA1 150403Z 05000KT 27/18 A3009 RMK A01 T02740178  RH  056%=      5-min Rain = 0
KWA1 150404Z 05000KT 27/18 A3009 RMK A01 T02730179  RH  056%=      5-min Rain = 0
KWA1 150405Z 05000KT 27/18 A3009 RMK A01 T02730180  RH  057%=      5-min Rain = 0
KWA1 150406Z 05001KT 27/18 A3009 RMK A01 T02730180  RH  057%=      5-min Rain = 0
KWA1 150407Z 05001KT 27/18 A3009 RMK A01 T02730180  RH  057%=      5-min Rain = 0
KWA1 150408Z 05000KT 27/18 A3009 RMK A01 T02720180  RH  057%=      5-min Rain = 0
KWA1 150409Z 05000KT 27/18 A3009 RMK A01 T02720180  RH  057%=      5-min Rain = 0
KWA1 150410Z 00000KT 27/18 A3009 RMK A01 T02720180  RH  057%=      5-min Rain = 0
KWA1 150411Z 00000KT 27/18 A3009 RMK A01 T02710181  RH  058%=      5-min Rain = 0
KWA1 150412Z 11000KT 27/18 A3009 RMK A01 T02710182  RH  058%=      5-min Rain = 0
KWA1 150413Z 11001KT 27/18 A3009 RMK A01 T02710182  RH  058%=      5-min Rain = 0
KWA1 150414Z 09001KT 27/18 A3009 RMK A01 T02720182  RH  058%=      5-min Rain = 0
KWA1 150415Z 09002KT 27/18 A3009 RMK A01 T02720184  RH  058%=      5-min Rain = 0
KWA1 150416Z 09002KT 27/18 A3009 RMK A01 T02710181  RH  058%=      5-min Rain = 0
KWA1 150417Z 10002KT 27/18 A3009 RMK A01 T02700180  RH  058%=      5-min Rain = 0
KWA1 150418Z 10002KT 27/18 A3009 RMK A01 T02690180  RH  058%=      5-min Rain = 0
KWA1 150419Z 10001KT 27/18 A3009 RMK A01 T02690180  RH  058%=      5-min Rain = 0
KWA1 150420Z 09001KT 27/18 A3009 RMK A01 T02680179  RH  058%=      5-min Rain = 0
KWA1 150421Z 09001KT 27/18 A3009 RMK A01 T02680178  RH  058%=      5-min Rain = 0
KWA1 150422Z 09001KT 27/18 A3009 RMK A01 T02680177  RH  057%=      5-min Rain = 0
KWA1 150423Z 09001KT 27/18 A3009 RMK A01 T02670176  RH  057%=      5-min Rain = 0
KWA1 150424Z 09001KT 27/18 A301 RMK A01 T02660175  RH  057%=      5-min Rain = 0
KWA1 150425Z 08001KT 27/18 A301 RMK A01 T02660177  RH  058%=      5-min Rain = 0
KWA1 150426Z 08001KT 27/18 A301 RMK A01 T02660177  RH  058%=      5-min Rain = 0
KWA1 150427Z 08001KT 27/18 A301 RMK A01 T02660177  RH  058%=      5-min Rain = 0
KWA1 150428Z 07001KT 27/18 A301 RMK A01 T02660176  RH  058%=      5-min Rain = 0
KWA1 150429Z 07001KT 27/18 A301 RMK A01 T02650176  RH  058%=      5-min Rain = 0
KWA1 150430Z 07001KT 27/18 A301 RMK A01 T02650176  RH  058%=      5-min Rain = 0
KWA1 150431Z 07002KT 27/18 A301 RMK A01 T02650176  RH  058%=      5-min Rain = 0
KWA1 150432Z 07001KT 27/18 A301 RMK A01 T02650176  RH  058%=      5-min Rain = 0
KWA1 150433Z 07001KT 27/18 A301 RMK A01 T02650175  RH  058%=      5-min Rain = 0
KWA1 150434Z 06001KT 26/18 A301 RMK A01 T02640175  RH  058%=      5-min Rain = 0
KWA1 150435Z 06001KT 26/17 A301 RMK A01 T02640174  RH  058%=      5-min Rain = 0
KWA1 150436Z 06001KT 26/17 A301 RMK A01 T02640174  RH  058%=      5-min Rain = 0
KWA1 150437Z 06001KT 26/18 A301 RMK A01 T02640175  RH  058%=      5-min Rain = 0
KWA1 150438Z 06000KT 26/18 A301 RMK A01 T02640175  RH  058%=      5-min Rain = 0
KWA1 150439Z 00000KT 26/17 A301 RMK A01 T02640173  RH  057%=      5-min Rain = 0
KWA1 150440Z 00000KT 26/17 A301 RMK A01 T02640174  RH  058%=      5-min Rain = 0
KWA1 150441Z 00000KT 26/18 A301 RMK A01 T02640176  RH  058%=      5-min Rain = 0
KWA1 150442Z 31001KT 26/17 A301 RMK A01 T02640174  RH  058%=      5-min Rain = 0
KWA1 150443Z 31002KT 26/17 A301 RMK A01 T02640172  RH  057%=      5-min Rain = 0
KWA1 150444Z 30002KT 26/17 A301 RMK A01 T02640172  RH  057%=      5-min Rain = 0
KWA1 150445Z 30002KT 26/17 A301 RMK A01 T02640171  RH  057%=      5-min Rain = 0
KWA1 150446Z 30002KT 26/17 A301 RMK A01 T02640173  RH  057%=      5-min Rain = 0
KWA1 150447Z 30001KT 26/17 A301 RMK A01 T02630173  RH  057%=      5-min Rain = 0
KWA1 150448Z 30000KT 26/17 A301 RMK A01 T02630174  RH  058%=      5-min Rain = 0
KWA1 150449Z 00000KT 26/18 A301 RMK A01 T02630175  RH  058%=      5-min Rain = 0
KWA1 150450Z 00000KT 26/17 A3011 RMK A01 T02630174  RH  058%=      5-min Rain = 0
KWA1 150451Z 00000KT 26/17 A3011 RMK A01 T02630174  RH  058%=      5-min Rain = 0
KWA1 150452Z 00000KT 26/17 A301 RMK A01 T02630173  RH  058%=      5-min Rain = 0
KWA1 150453Z 30000KT 26/17 A301 RMK A01 T02630174  RH  058%=      5-min Rain = 0
KWA1 150454Z 30001KT 26/17 A301 RMK A01 T02630174  RH  058%=      5-min Rain = 0
KWA1 150455Z 30001KT 26/18 A301 RMK A01 T02630175  RH  058%=      5-min Rain = 0
KWA1 150456Z 30001KT 26/18 A301 RMK A01 T02630176  RH  059%=      5-min Rain = 0
KWA1 150457Z 30000KT 26/18 A301 RMK A01 T02640178  RH  059%=      5-min Rain = 0
KWA1 150458Z 00000KT 26/19 A301 RMK A01 T02640188  RH  063%=      5-min Rain = 0
KWA1 150459Z 00000KT 26/19 A301 RMK A01 T02630186  RH  062%=      5-min Rain = 0

Page generated in 0.1457 seconds.